NoveltyWeather Station
Hourly Leaf Wetness Data

Source: University of Missouri

To the bottom of the page

Year Month Day Hour Leaf Wetness Total
Precipitation
Avg. Temp Avg. Rel.
Humidity
Wind
Speed
CST mV in mm F C % mph
2021 08 18 1:00 Wet 287.1 0.0 0.00 66.1 18.9 93.1 0.0
2021 08 18 2:00 Wet 294.3 0.0 0.00 65.1 18.4 97.8 0.0
2021 08 18 3:00 Wet 300.7 0.0 0.00 64.2 17.9 99.3 0.0
2021 08 18 4:00 Wet 300.4 0.0 0.00 63.8 17.7 99.9 0.0
2021 08 18 5:00 Wet 298.1 0.0 0.00 63.4 17.4 99.8 0.0
2021 08 18 6:00 Wet 290.1 0.0 0.00 62.9 17.2 99.4 0.0
2021 08 18 7:00 247.0 0.0 0.00 66.2 19.0 92.5 0.0
2021 08 18 8:00 227.7 0.0 0.00 71.2 21.8 84.6 3.4
2021 08 18 9:00 225.8 0.0 0.00 75.8 24.3 75.49 5.7
2021 08 18 10:00 224.7 0.0 0.00 79.3 26.3 67.94 6.7
2021 08 18 11:00 225.6 0.0 0.00 81.2 27.4 63.09 7.5
2021 08 18 12:00 226.3 0.0 0.00 82.5 28.1 59.31 8.3
2021 08 18 13:00 226.1 0.0 0.00 83.1 28.4 59.51 7.8
2021 08 18 14:00 242.4 0.0 0.00 84.5 29.2 56.91 6.1
2021 08 18 15:00 236.7 0.0 0.00 84.7 29.3 56.4 6.5
2021 08 18 16:00 242.3 0.0 0.00 83.2 28.4 61.11 7.1
2021 08 18 17:00 243.5 0.0 0.00 82.0 27.8 61.56 7.0
2021 08 18 18:00 244.2 0.0 0.00 81.4 27.4 63.61 3.6
2021 08 18 19:00 247.8 0.0 0.00 79.1 26.1 71.33 0.0
2021 08 18 20:00 255.0 0.0 0.00 75.1 23.9 80.2 0.0
2021 08 18 21:00 254.1 0.0 0.00 71.9 22.1 88.3 0.0
2021 08 18 22:00 258.8 0.0 0.00 71.1 21.7 89.7 0.0
2021 08 18 23:00 279.8 0.0 0.00 70.3 21.3 92 0.0
2021 08 18 24:00 Wet 314.5 0.0 0.00 69.7 20.9 95.1 0.0
2021 08 19 1:00 Wet 359.8 0.0 0.00 69.1 20.6 96.1 0.0
2021 08 19 2:00 Wet 354.0 0.0 0.00 68.2 20.1 91.6 0.0
2021 08 19 3:00 Wet 362.3 0.0 0.00 67.3 19.6 93.2 0.0
2021 08 19 4:00 Wet 369.0 0.0 0.00 65.5 18.6 98.7 0.0
2021 08 19 5:00 Wet 360.1 0.0 0.00 64.1 17.8 99.9 0.0
2021 08 19 6:00 Wet 354.7 0.0 0.00 63.0 17.2 99.9 0.0
2021 08 19 7:00 278.2 0.0 0.00 65.7 18.7 99 0.0
2021 08 19 8:00 236.4 0.0 0.00 71.2 21.8 87.9 0.0
2021 08 19 9:00 226.9 0.0 0.00 75.0 23.9 82.6 0.0
2021 08 19 10:00 225.8 0.0 0.00 77.8 25.5 76.6 5.0
2021 08 19 11:00 224.7 0.0 0.00 79.9 26.6 70.14 6.6
2021 08 19 12:00 223.1 0.0 0.00 81.3 27.4 65.67 7.4
2021 08 19 13:00 222.1 0.0 0.00 82.6 28.1 62.99 7.2
2021 08 19 14:00 220.8 0.0 0.00 83.3 28.5 60.29 7.0
2021 08 19 15:00 220.8 0.0 0.00 82.9 28.3 61.24 6.6
2021 08 19 16:00 220.3 0.0 0.00 83.4 28.6 59.53 6.0
2021 08 19 17:00 220.9 0.0 0.00 82.3 28.0 63.19 5.2
2021 08 19 18:00 221.7 0.0 0.00 81.0 27.2 67.48 5.1
2021 08 19 19:00 223.6 0.0 0.00 78.1 25.6 75.7 1.0
2021 08 19 20:00 238.4 0.0 0.00 74.8 23.8 81.2 2.9
2021 08 19 21:00 258.4 0.0 0.00 72.9 22.7 85.1 3.8
2021 08 19 22:00 264.9 0.0 0.00 71.6 22.0 87 0.4
2021 08 19 23:00 260.6 0.0 0.00 70.7 21.5 88.6 0.0
2021 08 19 24:00 261.3 0.0 0.00 69.2 20.7 90.8 0.0
2021 08 20 1:00 271.5 0.0 0.00 68.5 20.3 92.5 0.0
2021 08 20 2:00 Wet 292.5 0.0 0.00 67.7 19.8 94.8 0.0
2021 08 20 3:00 Wet 318.1 0.0 0.00 67.0 19.4 99.6 0.0
2021 08 20 4:00 Wet 333.7 0.0 0.00 66.6 19.2 99.9 0.0
2021 08 20 5:00 Wet 345.6 0.0 0.00 66.0 18.9 99.9 0.8
2021 08 20 6:00 Wet 327.9 0.0 0.00 66.4 19.1 99.9 0.0
2021 08 20 7:00 273.5 0.0 0.00 68.5 20.3 98.5 2.6
2021 08 20 8:00 237.9 0.0 0.00 72.1 22.3 91.1 5.0
2021 08 20 9:00 227.5 0.0 0.00 75.6 24.2 86.9 5.4
2021 08 20 10:00 226.3 0.0 0.00 78.8 26.0 82.7 6.9
2021 08 20 11:00 225.2 0.0 0.00 81.1 27.3 77.19 8.5
2021 08 20 12:00 224.4 0.0 0.00 82.0 27.8 74.34 8.8
2021 08 20 13:00 223.4 0.0 0.00 83.2 28.4 71.45 9.5
2021 08 20 14:00 222.5 0.0 0.00 84.4 29.1 67.48 10.6
2021 08 20 15:00 222.0 0.0 0.00 85.1 29.5 65.46 11.0
2021 08 20 16:00 221.7 0.0 0.00 85.3 29.6 64.12 10.0
2021 08 20 17:00 221.5 0.0 0.00 85.0 29.4 65.37 9.6
2021 08 20 18:00 222.0 0.0 0.00 83.8 28.8 68.24 8.6
2021 08 20 19:00 223.6 0.0 0.00 81.5 27.5 73.97 6.4
2021 08 20 20:00 225.7 0.0 0.00 78.7 25.9 81.1 5.6
2021 08 20 21:00 252.4 0.0 0.00 77.0 25.0 85.6 4.3
2021 08 20 22:00 260.2 0.0 0.00 75.3 24.1 89.7 5.1
2021 08 20 23:00 251.0 0.0 0.00 75.4 24.1 89.3 4.8
2021 08 20 24:00 Wet 325.8 0.0 0.00 75.4 24.1 90.4 7.4
2021 08 21 1:00 Wet 327.9 0.0 0.00 73.9 23.3 99.8 6.7
2021 08 21 2:00 Wet 286.5 0.0 0.00 72.5 22.5 97.4 2.2
2021 08 21 3:00 273.5 0.0 0.00 70.7 21.5 95.8 0.0
2021 08 21 4:00 Wet 371.4 0.0 0.00 70.1 21.2 95.8 5.2
2021 08 21 5:00 283.3 0.0 0.00 68.2 20.1 96 2.8
2021 08 21 6:00 274.2 0.0 0.00 67.9 19.9 97.6 4.2
2021 08 21 7:00 256.5 0.0 0.00 69.0 20.6 90.6 7.7
2021 08 21 8:00 233.8 0.0 0.00 71.1 21.7 86.8 7.0
2021 08 21 9:00 226.7 0.0 0.00 72.8 22.7 83.3 11.7
2021 08 21 10:00 226.2 0.0 0.00 73.5 23.1 82.9 8.7
2021 08 21 11:00 225.1 0.0 0.00 76.7 24.9 78.02 8.5
2021 08 21 12:00 223.8 0.0 0.00 79.1 26.2 70.93 8.9
2021 08 21 13:00 222.7 0.0 0.00 81.1 27.3 66.26 9.6
2021 08 21 14:00 261.3 0.0 0.00 82.1 27.9 63.42 8.9
2021 08 21 15:00 253.0 0.0 0.00 82.7 28.2 58.28 8.6
2021 08 21 16:00 248.7 0.0 0.00 82.8 28.2 59.57 8.3
2021 08 21 17:00 239.4 0.0 0.00 81.8 27.7 58.86 9.0
2021 08 21 18:00 221.1 0.0 0.00 79.0 26.1 61.82 7.6
2021 08 21 19:00 246.4 0.0 0.00 74.0 23.3 72.07 5.5
2021 08 21 20:00 245.8 0.0 0.00 69.0 20.6 80.4 4.6
2021 08 21 21:00 245.5 0.0 0.00 66.5 19.2 83 3.7
2021 08 21 22:00 254.4 0.0 0.00 65.1 18.4 84.8 3.6
2021 08 21 23:00 255.3 0.0 0.00 64.4 18.0 85.2 4.0
2021 08 21 24:00 256.3 0.0 0.00 63.9 17.7 85.9 3.6
2021 08 22 1:00 254.2 0.0 0.00 63.4 17.4 86.6 2.4
2021 08 22 2:00 263.0 0.0 0.00 61.5 16.4 91.2 3.4
2021 08 22 3:00 Wet 305.4 0.0 0.00 60.4 15.8 92.1 3.5
2021 08 22 4:00 Wet 329.3 0.0 0.00 60.3 15.7 91.9 3.5
2021 08 22 5:00 Wet 328.9 0.0 0.00 59.6 15.3 93.1 4.1
2021 08 22 6:00 Wet 323.7 0.0 0.00 59.3 15.2 93.3 2.0
2021 08 22 7:00 256.5 0.0 0.00 61.3 16.3 90.4 1.6
2021 08 22 8:00 238.0 0.0 0.00 64.7 18.1 84 4.8
2021 08 22 9:00 237.6 0.0 0.00 68.8 20.5 74.29 4.8
2021 08 22 10:00 224.5 0.0 0.00 72.1 22.3 63.81 3.6
2021 08 22 11:00 223.0 0.0 0.00 74.8 23.8 58.74 2.2
2021 08 22 12:00 221.3 0.0 0.00 76.0 24.4 57.44 2.5
2021 08 22 13:00 219.8 0.0 0.00 78.0 25.5 55.77 1.9
2021 08 22 14:00 218.7 0.0 0.00 79.4 26.4 53.56 2.3
2021 08 22 15:00 217.8 0.0 0.00 80.8 27.1 53.57 1.7
2021 08 22 16:00 217.4 0.0 0.00 81.8 27.7 53.71 1.5
2021 08 22 17:00 217.7 0.0 0.00 81.4 27.5 50.32 1.3
2021 08 22 18:00 256.2 0.0 0.00 79.5 26.4 60.78 3.0
2021 08 22 19:00 262.3 0.0 0.00 75.7 24.3 71 3.1
2021 08 22 20:00 265.7 0.0 0.00 71.5 22.0 80.7 1.0
2021 08 22 21:00 266.4 0.0 0.00 69.4 20.8 85.9 0.0
2021 08 22 22:00 265.3 0.0 0.00 69.2 20.7 82.7 1.8
2021 08 22 23:00 263.0 0.0 0.00 68.0 20.0 84.8 2.9
2021 08 22 24:00 260.9 0.0 0.00 67.7 19.8 85.1 0.3
2021 08 23 1:00 262.5 0.0 0.00 67.4 19.6 86.7 0.0
2021 08 23 2:00 261.2 0.0 0.00 67.0 19.4 89.3 1.8
2021 08 23 3:00 260.0 0.0 0.00 67.3 19.6 90.2 2.4
2021 08 23 4:00 261.7 0.0 0.00 67.5 19.7 89.7 3.7
2021 08 23 5:00 258.5 0.0 0.00 67.7 19.8 88.5 4.5
2021 08 23 6:00 253.8 0.0 0.00 68.2 20.1 87.3 5.0
2021 08 23 7:00 247.3 0.0 0.00 69.9 21.1 86 4.8
2021 08 23 8:00 243.3 0.0 0.00 74.9 23.9 81.3 6.4
2021 08 23 9:00 238.4 0.0 0.00 79.2 26.2 77.85 7.3
2021 08 23 10:00 248.0 0.0 0.00 83.1 28.4 74.08 7.0
2021 08 23 11:00 250.4 0.0 0.00 86.1 30.1 70.54 5.7
2021 08 23 12:00 254.1 0.0 0.00 88.9 31.6 64.05 5.7
2021 08 23 13:00 253.3 0.0 0.00 90.6 32.6 59.53 7.5
2021 08 23 14:00 254.4 0.0 0.00 92.0 33.3 56.35 8.0
2021 08 23 15:00 252.4 0.0 0.00 92.3 33.5 53.8 8.3
2021 08 23 16:00 226.6 0.0 0.00 91.9 33.3 51.97 8.7
2021 08 23 17:00 259.5 0.0 0.00 90.8 32.7 54.37 8.6
2021 08 23 18:00 258.7 0.0 0.00 87.9 31.0 60.04 8.1
2021 08 23 19:00 256.9 0.0 0.00 82.3 27.9 73.5 7.3
2021 08 23 20:00 253.4 0.0 0.00 79.9 26.6 75.46 7.7
2021 08 23 21:00 247.2 0.0 0.00 78.0 25.6 78.86 6.6
2021 08 23 22:00 237.7 0.0 0.00 76.4 24.7 83.5 5.4
2021 08 23 23:00 230.2 0.0 0.00 74.8 23.8 88 4.3
2021 08 23 24:00 228.2 0.0 0.00 73.8 23.2 90.5 4.8
2021 08 24 1:00 228.1 0.0 0.00 73.6 23.1 90.8 4.5
2021 08 24 2:00 228.4 0.0 0.00 73.2 22.9 91.4 4.6
2021 08 24 3:00 222.6 0.0 0.00 72.9 22.7 91.8 3.5
2021 08 24 4:00 227.1 0.0 0.00 71.9 22.2 93.6 2.8
2021 08 24 5:00 261.5 0.0 0.00 71.4 21.9 99.5 4.5
2021 08 24 6:00 267.3 0.0 0.00 71.5 21.9 99.8 4.7
2021 08 24 7:00 232.9 0.0 0.00 73.5 23.0 92.4 7.1
2021 08 24 8:00 227.6 0.0 0.00 77.4 25.2 84 8.0
2021 08 24 9:00 226.5 0.0 0.00 80.9 27.2 76.38 8.9
2021 08 24 10:00 225.3 0.0 0.00 84.1 28.9 69.59 9.2
2021 08 24 11:00 224.1 0.0 0.00 86.6 30.3 63.76 9.9
2021 08 24 12:00 222.6 0.0 0.00 88.5 31.4 58.74 10.9
2021 08 24 13:00 221.5 0.0 0.00 89.6 32.0 53.22 13.0
2021 08 24 14:00 220.8 0.0 0.00 90.3 32.4 51.25 13.1
2021 08 24 15:00 220.1 0.0 0.00 91.0 32.8 49.26 12.1
2021 08 24 16:00 219.9 0.0 0.00 90.9 32.7 49.97 10.5
2021 08 24 17:00 219.9 0.0 0.00 90.1 32.2 50.6 9.0
2021 08 24 18:00 220.3 0.0 0.00 88.2 31.2 57.06 5.2
2021 08 24 19:00 241.5 0.0 0.00 84.5 29.2 66.87 0.9
2021 08 24 20:00 257.2 0.0 0.00 80.4 26.9 76.04 1.6
2021 08 24 21:00 251.7 0.0 0.00 78.0 25.5 82 3.3
2021 08 24 22:00 249.6 0.0 0.00 76.4 24.7 84.5 2.5
2021 08 24 23:00 246.2 0.0 0.00 75.7 24.3 89.7 5.6
2021 08 24 24:00 247.0 0.0 0.00 73.2 22.9 90 5.4
2021 08 25 1:00 245.3 0.0 0.00 73.5 23.0 90.7 4.4
2021 08 25 2:00 239.8 0.0 0.00 73.8 23.2 92.1 3.3
2021 08 25 3:00 242.5 0.0 0.00 74.1 23.4 91.4 1.5
2021 08 25 4:00 248.8 0.0 0.00 74.4 23.6 88 6.9
2021 08 25 5:00 248.6 0.0 0.00 73.5 23.1 87.8 5.2
2021 08 25 6:00 254.1 0.0 0.00 73.4 23.0 87.2 5.4
2021 08 25 7:00 244.5 0.0 0.00 74.3 23.5 85.7 4.2
2021 08 25 8:00 232.2 0.0 0.00 75.8 24.4 82.8 5.0
2021 08 25 9:00 227.9 0.0 0.00 77.5 25.3 79.46 6.1
2021 08 25 10:00 225.1 0.0 0.00 78.8 26.0 73.23 5.4
2021 08 25 11:00 224.2 0.0 0.00 80.0 26.7 70.33 4.0
2021 08 25 12:00 222.5 0.0 0.00 82.6 28.1 66.3 1.9
2021 08 25 13:00 221.4 0.0 0.00 84.6 29.2 65.17 3.9
2021 08 25 14:00 222.1 0.0 0.00 84.3 29.1 66.17 3.1
2021 08 25 15:00 222.4 0.0 0.00 84.5 29.2 68.94 3.0
2021 08 25 16:00 222.9 0.0 0.00 84.2 29.0 71.97 4.1
2021 08 25 17:00 223.8 0.0 0.00 82.8 28.2 76.4 2.1
2021 08 25 18:00 223.7 0.0 0.00 82.0 27.8 76.86 4.8
2021 08 25 19:00 225.6 0.0 0.00 80.1 26.7 80 0.8
2021 08 25 20:00 239.3 0.0 0.00 76.9 24.9 87.7 0.5
2021 08 25 21:00 260.7 0.0 0.00 76.6 24.8 86.3 4.2
2021 08 25 22:00 245.2 0.0 0.00 75.2 24.0 88.8 1.5
2021 08 25 23:00 239.1 0.0 0.00 73.2 22.9 93.8 0.5
2021 08 25 24:00 271.0 0.0 0.00 72.1 22.3 97.9 0.0
2021 08 26 1:00 Wet 288.6 0.0 0.00 71.7 22.1 99.8 0.0
2021 08 26 2:00 Wet 293.1 0.0 0.00 71.0 21.6 99.8 0.1
2021 08 26 3:00 Wet 291.1 0.0 0.00 70.8 21.5 99.8 0.2
2021 08 26 4:00 Wet 285.3 0.0 0.00 69.8 21.0 99.8 0.0
2021 08 26 5:00 278.3 0.0 0.00 68.8 20.4 99.8 0.5
2021 08 26 6:00 274.0 0.0 0.00 68.7 20.4 99.9 0.5
2021 08 26 7:00 250.6 0.0 0.00 71.2 21.8 99.9 2.5
2021 08 26 8:00 229.7 0.0 0.00 75.1 24.0 99.9 4.3
2021 08 26 9:00 227.6 0.0 0.00 79.6 26.4 86.4 2.2
2021 08 26 10:00 226.1 0.0 0.00 84.3 29.1 75.91 4.1
2021 08 26 11:00 224.0 0.0 0.00 87.3 30.7 67.28 4.4
2021 08 26 12:00 222.3 0.0 0.00 88.9 31.6 60.06 5.1
2021 08 26 13:00 220.6 0.0 0.00 90.6 32.6 53.45 4.9
2021 08 26 14:00 223.5 0.0 0.00 91.8 33.2 50.72 3.6
2021 08 26 15:00 229.3 0.0 0.00 91.7 33.2 49.82 2.2
2021 08 26 16:00 230.6 0.0 0.00 82.1 27.9 61.29 7.7
2021 08 26 17:00 224.1 0.0 0.00 77.5 25.3 70.19 3.0
2021 08 26 18:00 227.9 0.0 0.00 80.7 27.1 67.87 3.4
2021 08 26 19:00 228.1 0.0 0.00 79.4 26.4 72.07 9.3
2021 08 26 20:00 235.9 0.0 0.00 75.6 24.2 78.46 5.2
2021 08 26 21:00 244.7 0.0 0.00 72.9 22.7 85.2 2.5
2021 08 26 22:00 246.8 0.0 0.00 71.4 21.9 89.7 1.2
2021 08 26 23:00 245.7 0.0 0.00 70.3 21.3 91.9 1.5
2021 08 26 24:00 257.4 0.0 0.00 69.5 20.9 93.4 4.6
2021 08 27 1:00 252.2 0.0 0.00 68.9 20.5 96 3.4
2021 08 27 2:00 265.1 0.0 0.00 68.3 20.1 99.9 3.6
2021 08 27 3:00 273.5 0.0 0.00 68.2 20.1 99.8 2.7
2021 08 27 4:00 Wet 285.2 0.0 0.00 67.5 19.7 99.8 0.0
2021 08 27 5:00 Wet 290.7 0.0 0.00 67.6 19.8 99.8 2.1
2021 08 27 6:00 281.0 0.0 0.00 67.9 19.9 94.8 5.0
2021 08 27 7:00 246.7 0.0 0.00 69.5 20.9 90.5 5.0
2021 08 27 8:00 227.9 0.0 0.00 74.0 23.3 85 6.9
2021 08 27 9:00 226.6 0.0 0.00 78.7 25.9 77.7 8.2
2021 08 27 10:00 225.5 0.0 0.00 82.1 27.8 72.87 7.7
2021 08 27 11:00 224.0 0.0 0.00 85.8 29.9 65.14 7.0
2021 08 27 12:00 222.4 0.0 0.00 88.2 31.2 58.44 8.1
2021 08 27 13:00 221.3 0.0 0.00 89.5 32.0 54.57 9.6
2021 08 27 14:00 220.6 0.0 0.00 89.8 32.1 54.31 8.8
2021 08 27 15:00 220.3 0.0 0.00 89.7 32.0 53.14 9.4
2021 08 27 16:00 219.9 0.0 0.00 89.9 32.2 50.94 9.1
2021 08 27 17:00 220.0 0.0 0.00 89.2 31.8 54.81 7.1
2021 08 27 18:00 221.0 0.0 0.00 87.1 30.6 62.27 4.7
2021 08 27 19:00 223.1 0.0 0.00 83.4 28.6 71.36 3.3
2021 08 27 20:00 225.3 0.0 0.00 80.0 26.7 77.63 1.2
2021 08 27 21:00 226.7 0.0 0.00 78.0 25.6 81.6 1.7
2021 08 27 22:00 227.1 0.0 0.00 77.2 25.1 84.6 3.8
2021 08 27 23:00 227.2 0.0 0.00 76.8 24.9 84.8 5.8
2021 08 27 24:00 227.5 0.0 0.00 75.7 24.3 84.4 2.7
2021 08 28 1:00 229.4 0.0 0.00 73.9 23.3 88 0.0
2021 08 28 2:00 232.2 0.0 0.00 72.6 22.6 90.2 0.0
2021 08 28 3:00 230.1 0.0 0.00 72.3 22.4 89 4.2
2021 08 28 4:00 230.2 0.0 0.00 71.8 22.1 89.5 3.7
2021 08 28 5:00 229.8 0.0 0.00 71.7 22.0 89.9 4.6
2021 08 28 6:00 230.1 0.0 0.00 71.2 21.8 90.7 5.2
2021 08 28 7:00 236.9 0.0 0.00 72.6 22.5 87.6 6.2
2021 08 28 8:00 224.6 0.0 0.00 75.9 24.4 80.3 8.7
2021 08 28 9:00 224.1 0.0 0.00 79.5 26.4 73.51 8.9
2021 08 28 10:00 224.7 0.0 0.00 82.8 28.2 66.59 8.1
2021 08 28 11:00 223.4 0.0 0.00 85.4 29.6 58.17 8.5
2021 08 28 12:00 222.1 0.0 0.00 86.6 30.3 55.5 8.3
2021 08 28 13:00 224.3 0.0 0.00 87.9 31.0 53.67 7.3
2021 08 28 14:00 249.7 0.0 0.00 87.9 31.1 53.28 7.4
2021 08 28 15:00 248.5 0.0 0.00 87.5 30.8 54.1 8.3
2021 08 28 16:00 249.1 0.0 0.00 87.8 31.0 51.77 9.0
2021 08 28 17:00 250.6 0.0 0.00 87.3 30.7 53.09 8.2
2021 08 28 18:00 245.7 0.0 0.00 85.4 29.7 57.98 5.2
2021 08 28 19:00 223.1 0.0 0.00 81.4 27.5 67.3 4.4
2021 08 28 20:00 252.5 0.0 0.00 78.2 25.6 74.18 3.8
2021 08 28 21:00 262.7 0.0 0.00 76.8 24.9 77.39 4.5
2021 08 28 22:00 262.8 0.0 0.00 76.2 24.6 79.32 5.8
2021 08 28 23:00 259.7 0.0 0.00 75.4 24.1 82.8 5.4
2021 08 28 24:00 257.8 0.0 0.00 74.3 23.5 85 4.7
2021 08 29 1:00 247.8 0.0 0.00 72.4 22.5 88.8 2.9
2021 08 29 2:00 247.6 0.0 0.00 71.8 22.1 88.8 3.1
2021 08 29 3:00 240.3 0.0 0.00 70.8 21.5 90.6 3.0
2021 08 29 4:00 235.3 0.0 0.00 70.2 21.2 91.9 2.3
2021 08 29 5:00 259.8 0.0 0.00 71.3 21.8 90.1 4.4
2021 08 29 6:00 257.0 0.0 0.00 72.3 22.4 87 5.5
2021 08 29 7:00 248.2 0.0 0.00 72.7 22.6 86 6.0
2021 08 29 8:00 237.7 0.0 0.00 75.8 24.4 79.04 7.6
2021 08 29 9:00 234.3 0.0 0.00 77.1 25.1 77.11 9.2
2021 08 29 10:00 242.7 0.0 0.00 79.9 26.6 72.35 11.5
2021 08 29 11:00 238.0 0.0 0.00 81.7 27.6 69.62 13.4
2021 08 29 12:00 245.7 0.0 0.00 84.4 29.1 63.2 12.6
2021 08 29 13:00 222.3 0.0 0.00 86.8 30.5 56.44 11.1
2021 08 29 14:00 221.0 0.0 0.00 86.6 30.4 59.32 9.1
2021 08 29 15:00 221.0 0.0 0.00 82.5 28.1 61.59 9.9
2021 08 29 16:00 219.8 0.0 0.00 84.1 28.9 55.27 7.5
2021 08 29 17:00 221.1 0.0 0.00 81.9 27.7 56.84 5.1
2021 08 29 18:00 223.0 0.0 0.00 80.7 27.1 61.59 4.3
2021 08 29 19:00 223.9 0.0 0.00 77.7 25.4 68.94 1.8
2021 08 29 20:00 248.0 0.0 0.00 74.2 23.5 78.02 0.0
2021 08 29 21:00 247.3 0.0 0.00 71.9 22.2 85.6 0.0
2021 08 29 22:00 245.5 0.0 0.00 70.5 21.4 89 0.0
2021 08 29 23:00 232.9 0.0 0.00 69.8 21.0 91.2 0.0
2021 08 29 24:00 248.2 0.0 0.00 68.6 20.3 93.7 1.1
2021 08 30 1:00 253.5 0.0 0.00 68.7 20.4 94.2 0.7
2021 08 30 2:00 263.8 0.0 0.00 68.3 20.1 93.9 1.5
2021 08 30 3:00 275.7 0.0 0.00 67.6 19.8 95.9 1.3
2021 08 30 4:00 281.5 0.0 0.00 67.4 19.6 95.8 1.1
2021 08 30 5:00 Wet 289.6 0.0 0.00 66.8 19.3 99.9 1.3
2021 08 30 6:00 Wet 286.1 0.0 0.00 66.8 19.3 99.9 1.3
2021 08 30 7:00 258.2 0.0 0.00 67.8 19.9 97.5 3.8
2021 08 30 8:00 228.0 0.0 0.00 71.2 21.8 81.3 6.9
2021 08 30 9:00 225.5 0.0 0.00 74.7 23.7 68.55 7.8
2021 08 30 10:00 224.2 0.0 0.00 76.6 24.8 62.23 8.6
2021 08 30 11:00 223.1 0.0 0.00 78.9 26.0 59.86 8.2
2021 08 30 12:00 222.3 0.0 0.00 81.0 27.2 59.7 7.5
2021 08 30 13:00 221.5 0.0 0.00 82.4 28.0 60.09 7.0
2021 08 30 14:00 221.2 0.0 0.00 82.6 28.1 61.75 5.2
2021 08 30 15:00 221.2 0.0 0.00 82.4 28.0 62.32 5.3
2021 08 30 16:00 220.4 0.0 0.00 83.0 28.3 60.34 6.9
2021 08 30 17:00 221.0 0.0 0.00 82.2 27.9 61.64 7.8
2021 08 30 18:00 221.7 0.0 0.00 80.6 27.0 64.55 6.9
2021 08 30 19:00 231.6 0.0 0.00 76.9 24.9 72.45 4.1
2021 08 30 20:00 257.4 0.0 0.00 73.3 22.9 81 1.2
2021 08 30 21:00 261.4 0.0 0.00 71.3 21.9 85.4 0.0
2021 08 30 22:00 260.1 0.0 0.00 70.6 21.5 86.4 0.0
2021 08 30 23:00 258.4 0.0 0.00 69.4 20.8 89.2 0.0
2021 08 30 24:00 239.3 0.0 0.00 68.6 20.4 90.6 0.0
2021 08 31 1:00 245.7 0.0 0.00 68.1 20.0 92.1 0.0
2021 08 31 2:00 243.7 0.0 0.00 67.9 19.9 93.9 3.7
2021 08 31 3:00 245.1 0.0 0.00 67.8 19.9 99.7 3.3
2021 08 31 4:00 255.2 0.0 0.00 68.0 20.0 99.9 4.3
2021 08 31 5:00 261.5 0.0 0.00 68.3 20.2 99.9 2.7
2021 08 31 6:00 Wet 395.1 0.6 16.00 66.8 19.3 99.9 8.8
2021 08 31 7:00 Wet 381.7 0.2 4.57 65.7 18.7 99.9 4.7
2021 08 31 8:00 Wet 385.4 0.4 8.89 65.8 18.8 99.9 4.4
2021 08 31 9:00 Wet 369.6 0.2 6.10 65.3 18.5 99.9 6.5
2021 08 31 10:00 248.2 0.0 0.00 66.8 19.4 99.9 5.3
2021 08 31 11:00 226.1 0.0 0.00 70.1 21.2 98.7 5.1
2021 08 31 12:00 225.0 0.0 0.00 74.3 23.5 81.7 9.2
2021 08 31 13:00 224.2 0.0 0.00 75.3 24.1 76.01 3.6
2021 08 31 14:00 227.1 0.0 0.00 74.2 23.5 79.81 5.4
2021 08 31 15:00 228.1 0.0 0.00 75.3 24.1 78.8 4.7
2021 08 31 16:00 230.2 0.0 0.00 76.2 24.6 76.02 7.2
2021 08 31 17:00 223.7 0.0 0.00 74.7 23.7 77.72 9.2
2021 08 31 18:00 225.4 0.0 0.00 73.3 22.9 79.87 8.9
2021 08 31 19:00 242.1 0.0 0.00 69.8 21.0 86.5 8.2
2021 08 31 20:00 257.6 0.0 0.00 68.5 20.3 87.5 7.0
2021 08 31 21:00 255.9 0.0 0.00 67.4 19.7 90.4 7.5
2021 08 31 22:00 253.3 0.0 0.00 67.4 19.7 87.3 8.0
2021 08 31 23:00 250.1 0.0 0.00 66.9 19.4 86 7.2
2021 08 31 24:00 237.1 0.0 0.00 66.4 19.1 86 6.2
2021 09 01 1:00 247.5 0.0 0.00 66.1 18.9 84.9 5.2
2021 09 01 2:00 244.5 0.0 0.00 65.4 18.6 88.1 5.8
2021 09 01 3:00 243.4 0.0 0.00 64.8 18.2 91.2 6.0
2021 09 01 4:00 242.2 0.0 0.00 65.0 18.3 91.2 5.8
2021 09 01 5:00 243.0 0.0 0.00 65.3 18.5 90.4 4.4
2021 09 01 6:00 280.2 0.0 0.00 63.5 17.5 94.2 3.3
2021 09 01 7:00 256.6 0.0 0.00 63.7 17.6 96.9 4.4
2021 09 01 8:00 227.3 0.0 0.00 65.9 18.8 89.2 5.9
2021 09 01 9:00 226.6 0.0 0.00 69.2 20.7 81.1 7.0
2021 09 01 10:00 225.6 0.0 0.00 72.3 22.4 74.46 7.7
2021 09 01 11:00 232.4 0.0 0.00 74.6 23.7 67.98 8.4
2021 09 01 12:00 240.7 0.0 0.00 76.4 24.7 61.49 8.4
2021 09 01 13:00 242.9 0.0 0.00 77.0 25.0 58 7.4
2021 09 01 14:00 235.1 0.0 0.00 77.9 25.5 55.99 7.8
2021 09 01 15:00 251.4 0.0 0.00 77.8 25.5 54.8 7.8
2021 09 01 16:00 244.1 0.0 0.00 77.8 25.5 55.17 7.3
2021 09 01 17:00 249.5 0.0 0.00 77.5 25.3 56.2 7.6
2021 09 01 18:00 225.3 0.0 0.00 75.7 24.3 60.43 5.3
2021 09 01 19:00 224.4 0.0 0.00 71.5 21.9 73.28 2.5
2021 09 01 20:00 230.1 0.0 0.00 68.4 20.2 80.4 3.3
2021 09 01 21:00 244.3 0.0 0.00 66.6 19.2 84 3.6
2021 09 01 22:00 246.8 0.0 0.00 64.5 18.1 88.3 3.5
2021 09 01 23:00 253.3 0.0 0.00 63.4 17.4 90.1 3.3
2021 09 01 24:00 269.5 0.0 0.00 62.7 17.0 91.6 2.3
2021 09 02 1:00 Wet 302.7 0.0 0.00 62.0 16.6 92.1 2.3
2021 09 02 2:00 Wet 309.3 0.0 0.00 61.7 16.5 91.9 4.4
2021 09 02 3:00 Wet 304.9 0.0 0.00 61.3 16.3 91.2 4.1
2021 09 02 4:00 Wet 307.6 0.0 0.00 60.1 15.6 89.6 1.9
2021 09 02 5:00 Wet 317.7 0.0 0.00 59.0 15.0 90.3 1.2
2021 09 02 6:00 Wet 299.7 0.0 0.00 58.3 14.6 90.7 4.4
2021 09 02 7:00 247.5 0.0 0.00 59.2 15.1 90.7 1.0
2021 09 02 8:00 227.0 0.0 0.00 62.8 17.1 83.7 5.6
2021 09 02 9:00 226.0 0.0 0.00 66.7 19.3 75.46 5.7
2021 09 02 10:00 224.7 0.0 0.00 69.5 20.8 66.59 6.9
2021 09 02 11:00 222.9 0.0 0.00 73.1 22.8 57.07 7.5
2021 09 02 12:00 222.2 0.0 0.00 73.7 23.1 54.77 7.6
2021 09 02 13:00 221.6 0.0 0.00 74.9 23.9 54.36 7.5
2021 09 02 14:00 221.5 0.0 0.00 74.9 23.8 55.29 8.2
2021 09 02 15:00 221.5 0.0 0.00 74.9 23.8 55.64 8.5
2021 09 02 16:00 222.0 0.0 0.00 74.0 23.4 57.02 7.3
2021 09 02 17:00 222.4 0.0 0.00 73.4 23.0 60.2 6.9
2021 09 02 18:00 228.7 0.0 0.00 71.3 21.8 66.19 5.8
2021 09 02 19:00 257.1 0.0 0.00 68.3 20.2 72.16 5.4
2021 09 02 20:00 257.1 0.0 0.00 66.8 19.4 74.86 6.5
2021 09 02 21:00 258.1 0.0 0.00 66.8 19.4 71.39 8.2
2021 09 02 22:00 254.2 0.0 0.00 66.3 19.1 72.5 7.3
2021 09 02 23:00 253.7 0.0 0.00 66.1 18.9 74.43 6.9
2021 09 02 24:00 254.7 0.0 0.00 66.1 18.9 72.85 7.8
2021 09 03 1:00 252.0 0.0 0.00 65.5 18.6 73.43 6.8
2021 09 03 2:00 254.2 0.0 0.00 64.8 18.2 74.54 6.7
2021 09 03 3:00 260.3 0.0 0.00 64.7 18.2 74.14 7.4
2021 09 03 4:00 256.3 0.0 0.00 64.9 18.3 73.48 8.0
2021 09 03 5:00 256.0 0.0 0.00 64.7 18.2 74.7 8.6
2021 09 03 6:00 Wet 297.4 0.1 1.78 64.3 17.9 78.37 7.1
2021 09 03 7:00 271.6 0.0 0.25 64.1 17.8 81.9 4.9
2021 09 03 8:00 Wet 288.3 0.0 0.25 64.8 18.2 82.8 4.6
2021 09 03 9:00 Wet 404.3 0.1 1.78 63.4 17.5 89.6 7.1
2021 09 03 10:00 283.2 0.0 0.25 63.6 17.6 91.5 7.9
2021 09 03 11:00 240.2 0.0 0.00 65.9 18.8 88.8 9.5
2021 09 03 12:00 236.4 0.0 0.00 66.7 19.3 86.6 9.4
2021 09 03 13:00 231.6 0.0 0.00 69.3 20.7 81.4 9.9
2021 09 03 14:00 224.9 0.0 0.00 71.0 21.7 79.48 9.2
2021 09 03 15:00 227.4 0.0 0.00 71.9 22.2 78.71 8.9
2021 09 03 16:00 231.2 0.0 0.00 72.7 22.6 78.86 8.6
2021 09 03 17:00 229.2 0.0 0.00 72.1 22.3 81.1 6.7
2021 09 03 18:00 228.2 0.0 0.00 71.7 22.1 82.7 4.9
2021 09 03 19:00 241.9 0.0 0.00 71.0 21.6 84.7 3.4
2021 09 03 20:00 254.7 0.0 0.00 69.3 20.7 89.4 1.9
2021 09 03 21:00 255.9 0.0 0.00 68.3 20.2 92 1.8
2021 09 03 22:00 263.8 0.0 0.00 67.3 19.6 95.3 1.1
2021 09 03 23:00 262.5 0.0 0.00 66.9 19.4 99.9 1.2
2021 09 03 24:00 272.8 0.0 0.00 66.5 19.2 99.9 1.2
2021 09 04 1:00 Wet 298.0 0.0 0.00 65.8 18.8 99.9 0.0
2021 09 04 2:00 Wet 306.5 0.0 0.00 66.2 19.0 99.9 0.2
2021 09 04 3:00 Wet 288.0 0.0 0.00 67.0 19.4 99.9 1.0
2021 09 04 4:00 263.7 0.0 0.00 68.4 20.2 51.5 1.7
2021 09 04 5:00 258.3 0.0 0.00 68.5 20.3 0.487 2.4
2021 09 04 6:00 255.0 0.0 0.00 68.5 20.3 44.87 2.2
2021 09 04 7:00 251.6 0.0 0.00 68.5 20.2 49.59 7.1
2021 09 04 8:00 247.9 0.0 0.00 68.2 20.1 39.34 5.6
2021 09 04 9:00 235.8 0.0 0.00 69.4 20.8 92.8 5.1
2021 09 04 10:00 252.9 0.0 0.00 69.8 21.0 92.6 5.7
2021 09 04 11:00 228.2 0.0 0.00 70.1 21.2 86 7.1
2021 09 04 12:00 228.2 0.0 0.00 70.9 21.6 81.8 7.9
2021 09 04 13:00 226.9 0.0 0.00 70.6 21.5 80.4 7.9
2021 09 04 14:00 225.5 0.0 0.00 71.3 21.8 78.47 8.4
2021 09 04 15:00 225.4 0.0 0.00 70.6 21.5 78.77 9.4
2021 09 04 16:00 226.2 0.0 0.00 69.1 20.6 82.7 7.4
2021 09 04 17:00 226.2 0.0 0.00 68.8 20.4 83 7.6
2021 09 04 18:00 226.8 0.0 0.00 67.9 19.9 86.2 4.6
2021 09 04 19:00 231.7 0.0 0.00 66.6 19.2 86.7 4.1
2021 09 04 20:00 273.4 0.0 0.00 63.7 17.6 92.9 2.9
2021 09 04 21:00 Wet 306.7 0.0 0.00 62.5 16.9 30.45 0.1
2021 09 04 22:00 Wet 313.2 0.0 0.00 61.0 16.1 0.415 0.0
2021 09 04 23:00 Wet 309.6 0.0 0.00 60.5 15.8 0.411 0.0
2021 09 04 24:00 Wet 305.8 0.0 0.00 59.4 15.2 0.411 0.0
2021 09 05 1:00 Wet 306.8 0.0 0.00 58.6 14.8 0.415 0.0
2021 09 05 2:00 Wet 305.1 0.0 0.00 57.7 14.3 0.428 0.0
2021 09 05 3:00 Wet 304.2 0.0 0.00 57.5 14.2 0.438 0.5
2021 09 05 4:00 Wet 304.9 0.0 0.00 57.1 14.0 0.423 0.3
2021 09 05 5:00 Wet 306.6 0.0 0.00 57.2 14.0 0.415 0.1
2021 09 05 6:00 Wet 303.8 0.0 0.00 57.0 13.9 0.411 0.4
2021 09 05 7:00 249.5 0.0 0.00 58.4 14.7 10.2 1.5
2021 09 05 8:00 228.7 0.0 0.00 63.3 17.4 89.4 4.2
2021 09 05 9:00 227.1 0.0 0.00 68.7 20.4 78.76 3.7
2021 09 05 10:00 225.0 0.0 0.00 72.9 22.7 67.47 5.2
2021 09 05 11:00 222.2 0.0 0.00 75.1 23.9 56.93 5.0
2021 09 05 12:00 220.7 0.0 0.00 76.2 24.5 54.33 6.1
2021 09 05 13:00 220.2 0.0 0.00 77.0 25.0 54.09 6.4
2021 09 05 14:00 219.6 0.0 0.00 77.4 25.2 52.71 6.0
2021 09 05 15:00 219.0 0.0 0.00 78.1 25.6 51.87 7.0
2021 09 05 16:00 218.9 0.0 0.00 78.3 25.7 51.18 8.5
2021 09 05 17:00 218.8 0.0 0.00 77.8 25.4 51.76 7.7
2021 09 05 18:00 219.8 0.0 0.00 75.9 24.4 58.15 5.4
2021 09 05 19:00 222.4 0.0 0.00 72.1 22.3 67.19 3.5
2021 09 05 20:00 224.3 0.0 0.00 69.2 20.7 73.66 4.2
2021 09 05 21:00 225.5 0.0 0.00 67.1 19.5 78.67 4.4
2021 09 05 22:00 226.8 0.0 0.00 65.7 18.7 81 4.6
2021 09 05 23:00 225.8 0.0 0.00 65.4 18.5 80.5 5.7
2021 09 05 24:00 226.0 0.0 0.00 64.8 18.2 82.6 5.6
2021 09 06 1:00 227.5 0.0 0.00 64.0 17.8 84.6 5.0
2021 09 06 2:00 227.3 0.0 0.00 63.9 17.7 84.7 4.6
2021 09 06 3:00 227.0 0.0 0.00 63.8 17.6 84.5 4.7
2021 09 06 4:00 229.1 0.0 0.00 63.0 17.2 87.3 4.6
2021 09 06 5:00 229.0 0.0 0.00 62.8 17.1 87.9 5.1
2021 09 06 6:00 228.5 0.0 0.00 62.7 17.1 88.8 5.9
2021 09 06 7:00 226.3 0.0 0.00 63.9 17.7 86.1 6.5
2021 09 06 8:00 225.1 0.0 0.00 67.9 19.9 78.32 8.6
2021 09 06 9:00 224.0 0.0 0.00 72.2 22.3 69.59 8.8
2021 09 06 10:00 223.0 0.0 0.00 75.7 24.3 63.01 9.5
2021 09 06 11:00 221.8 0.0 0.00 78.5 25.8 58.28 9.9
2021 09 06 12:00 220.9 0.0 0.00 80.3 26.8 56.38 9.2
2021 09 06 13:00 220.0 0.0 0.00 82.0 27.8 54.87 7.8
2021 09 06 14:00 219.4 0.0 0.00 83.1 28.4 53.07 8.2
2021 09 06 15:00 218.9 0.0 0.00 83.5 28.6 51.71 8.5
2021 09 06 16:00 225.0 0.0 0.00 83.3 28.5 51.5 8.7
2021 09 06 17:00 234.5 0.0 0.00 82.6 28.1 52.67 6.6
2021 09 06 18:00 235.1 0.0 0.00 80.1 26.7 57.63 5.0
2021 09 06 19:00 237.3 0.0 0.00 75.3 24.1 68.42 0.2
2021 09 06 20:00 231.3 0.0 0.00 71.5 22.0 75.15 0.0
2021 09 06 21:00 234.0 0.0 0.00 69.7 21.0 79.85 0.9
2021 09 06 22:00 239.4 0.0 0.00 68.6 20.3 80.4 3.8
2021 09 06 23:00 241.1 0.0 0.00 68.1 20.0 80.2 4.8
2021 09 06 24:00 241.0 0.0 0.00 67.2 19.6 81.3 5.0
2021 09 07 1:00 227.6 0.0 0.00 66.7 19.2 82.6 5.2
2021 09 07 2:00 247.4 0.0 0.00 65.8 18.8 84.6 5.7
2021 09 07 3:00 244.9 0.0 0.00 65.3 18.5 84.1 6.4
2021 09 07 4:00 241.6 0.0 0.00 64.9 18.3 83.1 6.0
2021 09 07 5:00 237.4 0.0 0.00 64.3 17.9 83.3 5.5
2021 09 07 6:00 237.8 0.0 0.00 63.6 17.6 84.5 5.5
2021 09 07 7:00 236.2 0.0 0.00 65.6 18.7 81 7.0
2021 09 07 8:00 236.4 0.0 0.00 70.1 21.1 74.69 7.9
2021 09 07 9:00 223.1 0.0 0.00 75.7 24.3 63.7 10.1
2021 09 07 10:00 222.2 0.0 0.00 78.4 25.8 61.25 11.1
2021 09 07 11:00 222.5 0.0 0.00 81.1 27.3 58.64 12.3
2021 09 07 12:00 249.9 0.0 0.00 83.6 28.7 56.28 12.9
2021 09 07 13:00 233.4 0.0 0.00 84.8 29.3 54.73 14.2
2021 09 07 14:00 236.6 0.0 0.00 85.3 29.6 55.44 12.4
2021 09 07 15:00 252.2 0.0 0.00 85.0 29.4 58.05 11.9
2021 09 07 16:00 245.7 0.0 0.00 84.2 29.0 59.98 9.9
2021 09 07 17:00 239.1 0.0 0.00 83.5 28.6 60.49 8.2
2021 09 07 18:00 221.8 0.0 0.00 80.5 26.9 66.24 5.9
2021 09 07 19:00 223.3 0.0 0.00 76.3 24.6 61.12 9.1
2021 09 07 20:00 221.8 0.0 0.00 72.5 22.5 61.56 7.8
2021 09 07 21:00 222.7 0.0 0.00 69.3 20.7 59.87 6.0
2021 09 07 22:00 226.7 0.0 0.00 64.2 17.9 67.23 4.8
2021 09 07 23:00 256.6 0.0 0.00 61.7 16.5 73.02 0.7
2021 09 07 24:00 264.3 0.0 0.00 59.2 15.1 78.2 2.2
2021 09 08 1:00 266.2 0.0 0.00 57.7 14.3 81.3 3.5
2021 09 08 2:00 260.0 0.0 0.00 58.6 14.8 76.91 5.5
2021 09 08 3:00 259.9 0.0 0.00 57.5 14.2 79.76 4.6
2021 09 08 4:00 257.3 0.0 0.00 56.2 13.4 81.9 3.8
2021 09 08 5:00 257.6 0.0 0.00 56.0 13.4 82.2 4.7
2021 09 08 6:00 251.3 0.0 0.00 55.7 13.2 81.2 4.9
2021 09 08 7:00 247.6 0.0 0.00 57.6 14.2 77.23 5.2
2021 09 08 8:00 248.6 0.0 0.00 62.6 17.0 65.62 7.9
2021 09 08 9:00 227.9 0.0 0.00 66.8 19.3 56.67 9.7
2021 09 08 10:00 221.4 0.0 0.00 70.5 21.4 51.35 9.1
2021 09 08 11:00 220.4 0.0 0.00 73.6 23.1 46.53 10.3
2021 09 08 12:00 219.4 0.0 0.00 74.9 23.9 42.31 12.9
2021 09 08 13:00 218.2 0.0 0.00 75.8 24.3 34.76 16.4
2021 09 08 14:00 217.5 0.0 0.00 76.5 24.7 33.32 15.0
2021 09 08 15:00 217.0 0.0 0.00 76.5 24.7 33.74 14.1
2021 09 08 16:00 216.8 0.0 0.00 76.4 24.6 35.63 11.6
2021 09 08 17:00 216.8 0.0 0.00 75.6 24.2 37.33 8.9
2021 09 08 18:00 217.5 0.0 0.00 72.9 22.7 45.12 4.2
2021 09 08 19:00 220.4 0.0 0.00 68.0 20.0 59.56 0.0
2021 09 08 20:00 241.9 0.0 0.00 62.3 16.8 74.97 0.0
2021 09 08 21:00 251.0 0.0 0.00 60.6 15.9 72.47 0.0
2021 09 08 22:00 249.5 0.0 0.00 60.8 16.0 69.5 0.6
2021 09 08 23:00 249.8 0.0 0.00 60.4 15.8 69.28 0.0
2021 09 08 24:00 249.1 0.0 0.00 59.1 15.0 75.28 0.0
2021 09 09 1:00 253.9 0.0 0.00 57.2 14.0 79.08 0.0
2021 09 09 2:00 257.1 0.0 0.00 55.8 13.2 80.2 1.4
2021 09 09 3:00 254.6 0.0 0.00 55.0 12.8 80.7 0.0
2021 09 09 4:00 264.4 0.0 0.00 54.2 12.3 82.5 0.8
2021 09 09 5:00 275.2 0.0 0.00 53.3 11.8 83.7 3.2
2021 09 09 6:00 Wet 308.4 0.0 0.00 52.7 11.5 85.4 2.7
2021 09 09 7:00 271.4 0.0 0.00 54.5 12.5 83.2 2.1
2021 09 09 8:00 250.2 0.0 0.00 60.2 15.6 75.64 4.5
2021 09 09 9:00 224.2 0.0 0.00 65.7 18.7 65.14 5.0
2021 09 09 10:00 224.5 0.0 0.00 69.8 21.0 56.07 4.2
2021 09 09 11:00 230.2 0.0 0.00 72.5 22.5 45.95 3.8
2021 09 09 12:00 218.5 0.0 0.00 73.2 22.9 43.05 3.7
2021 09 09 13:00 217.7 0.0 0.00 74.1 23.4 41.62 4.0
2021 09 09 14:00 216.3 0.0 0.00 75.2 24.0 38.07 2.4
2021 09 09 15:00 215.7 0.0 0.00 76.1 24.5 37.52 2.8
2021 09 09 16:00 219.8 0.0 0.00 76.2 24.5 37.75 3.1
2021 09 09 17:00 223.0 0.0 0.00 76.8 24.9 37.26 0.3
2021 09 09 18:00 223.6 0.0 0.00 75.7 24.3 43.41 0.0
2021 09 09 19:00 220.6 0.0 0.00 67.8 19.9 59.02 0.0
2021 09 09 20:00 250.7 0.0 0.00 62.4 16.9 80.4 0.0
2021 09 09 21:00 Wet 294.0 0.0 0.00 58.5 14.7 89.2 0.0
2021 09 09 22:00 Wet 336.9 0.0 0.00 56.9 13.9 91.6 0.0
2021 09 09 23:00 Wet 385.7 0.0 0.00 56.6 13.7 90.3 0.0
2021 09 09 24:00 Wet 393.2 0.0 0.00 57.5 14.2 81.3 0.0
2021 09 10 1:00 Wet 364.0 0.0 0.00 57.3 14.1 80.3 0.0
2021 09 10 2:00 Wet 372.6 0.0 0.00 55.7 13.2 87.2 0.0
2021 09 10 3:00 Wet 383.9 0.0 0.00 56.1 13.4 84.7 0.0
2021 09 10 4:00 Wet 366.7 0.0 0.00 56.2 13.4 83.3 0.0
2021 09 10 5:00 Wet 329.5 0.0 0.00 57.3 14.1 82.2 0.0
2021 09 10 6:00 280.4 0.0 0.00 57.4 14.1 82.8 0.0
2021 09 10 7:00 230.8 0.0 0.00 58.4 14.6 81.7 4.3
2021 09 10 8:00 224.4 0.0 0.00 62.5 16.9 74.04 5.9
2021 09 10 9:00 223.0 0.0 0.00 67.4 19.7 65.33 6.8
2021 09 10 10:00 237.0 0.0 0.00 71.1 21.7 60.1 7.6
2021 09 10 11:00 240.8 0.0 0.00 74.5 23.6 55.96 7.6
2021 09 10 12:00 239.0 0.0 0.00 77.2 25.1 52.03 8.2
2021 09 10 13:00 241.8 0.0 0.00 79.5 26.4 49.32 8.8
2021 09 10 14:00 238.3 0.0 0.00 81.2 27.3 47.81 8.6
2021 09 10 15:00 233.6 0.0 0.00 82.0 27.8 47.2 7.7
2021 09 10 16:00 236.1 0.0 0.00 82.7 28.2 47.67 7.3
2021 09 10 17:00 236.4 0.0 0.00 82.1 27.8 50.8 6.6
2021 09 10 18:00 238.5 0.0 0.00 79.9 26.6 55.41 4.7
2021 09 10 19:00 227.9 0.0 0.00 76.2 24.6 62.15 1.0
2021 09 10 20:00 235.9 0.0 0.00 72.6 22.5 70.45 0.0
2021 09 10 21:00 234.9 0.0 0.00 70.7 21.5 75.36 2.1
2021 09 10 22:00 232.7 0.0 0.00 69.7 20.9 78.04 4.2
2021 09 10 23:00 238.5 0.0 0.00 69.2 20.6 79.14 4.7
2021 09 10 24:00 241.5 0.0 0.00 68.2 20.1 81.3 5.2
2021 09 11 1:00 238.9 0.0 0.00 67.8 19.9 81 4.9
2021 09 11 2:00 241.1 0.0 0.00 66.6 19.2 82.5 3.8
2021 09 11 3:00 239.4 0.0 0.00 65.2 18.4 84.3 3.6
2021 09 11 4:00 241.3 0.0 0.00 65.3 18.5 83.3 5.3
2021 09 11 5:00 238.4 0.0 0.00 65.0 18.3 82.9 5.1
2021 09 11 6:00 238.9 0.0 0.00 63.5 17.5 85.3 4.1
2021 09 11 7:00 229.8 0.0 0.00 64.0 17.8 84.1 6.3
2021 09 11 8:00 224.6 0.0 0.00 66.1 18.9 80.2 6.9
2021 09 11 9:00 223.6 0.0 0.00 70.0 21.1 71.44 8.7
2021 09 11 10:00 225.3 0.0 0.00 74.3 23.5 61.45 9.8
2021 09 11 11:00 244.1 0.0 0.00 76.8 24.9 56.68 10.1
2021 09 11 12:00 244.5 0.0 0.00 79.8 26.5 53.88 10.2
2021 09 11 13:00 244.1 0.0 0.00 82.6 28.1 50.21 10.4
2021 09 11 14:00 237.5 0.0 0.00 84.3 29.1 48.48 9.5
2021 09 11 15:00 219.1 0.0 0.00 85.3 29.6 46.76 9.9
2021 09 11 16:00 235.7 0.0 0.00 85.4 29.6 47.89 8.9
2021 09 11 17:00 231.3 0.0 0.00 83.6 28.7 51.1 8.7
2021 09 11 18:00 237.5 0.0 0.00 80.4 26.9 55.36 8.0
2021 09 11 19:00 229.9 0.0 0.00 76.9 25.0 60.7 7.0
2021 09 11 20:00 236.3 0.0 0.00 74.1 23.4 66.09 6.3
2021 09 11 21:00 237.4 0.0 0.00 73.6 23.1 66.44 8.1
2021 09 11 22:00 241.1 0.0 0.00 72.3 22.4 69.39 7.5
2021 09 11 23:00 240.4 0.0 0.00 72.4 22.5 68.81 8.1
2021 09 11 24:00 244.6 0.0 0.00 75.3 24.0 60.27 10.3
2021 09 12 1:00 227.2 0.0 0.00 77.4 25.2 53.06 13.5
2021 09 12 2:00 220.9 0.0 0.00 75.9 24.4 55.03 11.9
2021 09 12 3:00 231.8 0.0 0.00 74.0 23.3 58.85 10.3
2021 09 12 4:00 245.9 0.0 0.00 72.0 22.2 62.87 9.1
2021 09 12 5:00 245.1 0.0 0.00 71.4 21.9 63.4 10.5
2021 09 12 6:00 246.2 0.0 0.00 71.6 22.0 62.03 11.6
2021 09 12 7:00 246.0 0.0 0.00 71.3 21.8 62.79 13.2
2021 09 12 8:00 245.3 0.0 0.00 71.4 21.9 64.39 11.2
2021 09 12 9:00 239.9 0.0 0.00 73.2 22.9 62.19 12.3
2021 09 12 10:00 244.6 0.0 0.00 75.7 24.3 58.82 11.5
2021 09 12 11:00 239.7 0.0 0.00 78.7 26.0 54.24 10.2
2021 09 12 12:00 228.1 0.0 0.00 80.9 27.2 50.55 11.2
2021 09 12 13:00 242.8 0.0 0.00 82.2 27.9 49.42 10.6
2021 09 12 14:00 243.2 0.0 0.00 83.7 28.7 47.74 11.1
2021 09 12 15:00 239.5 0.0 0.00 84.8 29.4 46.75 9.7
2021 09 12 16:00 244.8 0.0 0.00 85.2 29.5 46.46 9.8
2021 09 12 17:00 244.4 0.0 0.00 83.7 28.7 48.81 8.4
2021 09 12 18:00 221.7 0.0 0.00 80.7 27.1 55.87 2.2
2021 09 12 19:00 246.9 0.0 0.00 76.2 24.5 63.9 2.8
2021 09 12 20:00 235.8 0.0 0.00 71.7 22.0 72.49 0.9
2021 09 12 21:00 245.4 0.0 0.00 71.1 21.7 72.71 4.1
2021 09 12 22:00 244.4 0.0 0.00 71.6 22.0 71.85 5.3
2021 09 12 23:00 245.3 0.0 0.00 70.6 21.5 74.69 6.0
2021 09 12 24:00 242.6 0.0 0.00 70.0 21.1 76.67 5.9
2021 09 13 1:00 244.4 0.0 0.00 67.9 19.9 80.7 1.3
2021 09 13 2:00 252.8 0.0 0.00 65.7 18.7 85.2 0.0
2021 09 13 3:00 Wet 293.5 0.0 0.00 61.5 16.4 91.9 0.1
2021 09 13 4:00 Wet 317.3 0.0 0.00 59.7 15.4 94.5 1.2
2021 09 13 5:00 Wet 327.3 0.0 0.00 61.0 16.1 91 4.4
2021 09 13 6:00 Wet 305.5 0.0 0.00 61.7 16.5 88 5.0
2021 09 13 7:00 272.6 0.0 0.00 61.9 16.6 87.5 5.1
2021 09 13 8:00 227.0 0.0 0.00 65.7 18.7 80.9 5.5
2021 09 13 9:00 223.5 0.0 0.00 70.7 21.5 70.11 7.3
2021 09 13 10:00 223.4 0.0 0.00 74.2 23.4 62.12 9.5
2021 09 13 11:00 241.6 0.0 0.00 77.4 25.2 56.88 9.9
2021 09 13 12:00 244.0 0.0 0.00 80.5 26.9 50.95 10.3
2021 09 13 13:00 225.3 0.0 0.00 82.8 28.2 46.45 10.9
2021 09 13 14:00 223.8 0.0 0.00 83.5 28.6 45.13 10.2
2021 09 13 15:00 237.0 0.0 0.00 84.9 29.4 42.16 12.5
2021 09 13 16:00 234.3 0.0 0.00 85.1 29.5 40.84 12.6
2021 09 13 17:00 252.0 0.0 0.00 83.8 28.8 44.91 10.3
2021 09 13 18:00 252.5 0.0 0.00 80.9 27.1 52.11 6.9
2021 09 13 19:00 252.7 0.0 0.00 76.2 24.6 59.85 5.1
2021 09 13 20:00 253.4 0.0 0.00 72.6 22.6 68.21 4.3
2021 09 13 21:00 250.9 0.0 0.00 72.2 22.3 68.7 6.3
2021 09 13 22:00 246.1 0.0 0.00 72.6 22.6 67.76 6.4
2021 09 13 23:00 245.6 0.0 0.00 72.3 22.4 66.89 6.4
2021 09 13 24:00 236.0 0.0 0.00 71.7 22.1 67.22 6.0
2021 09 14 1:00 245.9 0.0 0.00 71.9 22.2 68.85 7.6
2021 09 14 2:00 244.4 0.0 0.00 70.2 21.2 74.37 6.4
2021 09 14 3:00 244.3 0.0 0.00 68.9 20.5 77.67 6.5
2021 09 14 4:00 242.8 0.0 0.00 68.0 20.0 80.8 6.5
2021 09 14 5:00 241.1 0.0 0.00 69.0 20.6 80.9 9.1
2021 09 14 6:00 243.9 0.0 0.00 70.8 21.5 79.31 11.2
2021 09 14 7:00 243.9 0.0 0.00 72.2 22.3 78.76 11.0
2021 09 14 8:00 245.1 0.0 0.00 73.7 23.2 77.23 12.6
2021 09 14 9:00 241.5 0.0 0.00 75.5 24.2 73.11 13.3
2021 09 14 10:00 241.5 0.0 0.00 76.9 24.9 68.32 11.5
2021 09 14 11:00 249.5 0.0 0.00 78.8 26.0 64.14 8.3
2021 09 14 12:00 247.8 0.0 0.00 80.5 27.0 60.08 8.3
2021 09 14 13:00 249.4 0.0 0.00 80.9 27.2 60.25 9.0
2021 09 14 14:00 249.5 0.0 0.00 80.3 26.9 59.96 10.9
2021 09 14 15:00 249.4 0.0 0.00 76.6 24.8 60.87 10.4
2021 09 14 16:00 222.8 0.0 0.00 74.6 23.7 62.88 7.9
2021 09 14 17:00 244.9 0.0 0.00 73.6 23.1 62.94 9.4
2021 09 14 18:00 247.9 0.0 0.00 71.0 21.6 71.06 5.1
2021 09 14 19:00 244.3 0.0 0.00 68.9 20.5 76.13 2.0
2021 09 14 20:00 241.5 0.0 0.00 67.3 19.6 79.98 4.5
2021 09 14 21:00 244.7 0.0 0.00 64.9 18.3 83.7 3.6
2021 09 14 22:00 246.9 0.0 0.00 63.6 17.5 86.5 4.7
2021 09 14 23:00 250.0 0.0 0.00 61.8 16.5 89.3 4.7
2021 09 14 24:00 274.7 0.0 0.00 61.0 16.1 88.8 1.6
2021 09 15 1:00 Wet 312.1 0.0 0.00 58.7 14.8 94 1.5
2021 09 15 2:00 Wet 337.2 0.0 0.00 59.6 15.3 91.8 4.2
2021 09 15 3:00 Wet 343.6 0.0 0.00 59.1 15.1 89.5 3.5
2021 09 15 4:00 Wet 367.1 0.0 0.00 58.1 14.5 89.9 3.4
2021 09 15 5:00 Wet 401.9 0.0 0.00 56.9 13.9 91.1 0.9
2021 09 15 6:00 Wet 461.0 0.0 0.00 55.4 13.0 92.5 1.1
2021 09 15 7:00 Wet 474.2 0.0 0.00 55.3 12.9 95 0.0
2021 09 15 8:00 Wet 416.8 0.0 0.00 60.8 16.0 86.6 3.3
2021 09 15 9:00 254.5 0.0 0.00 65.5 18.6 72.18 5.5
2021 09 15 10:00 222.1 0.0 0.00 69.3 20.7 57.03 5.3
2021 09 15 11:00 220.1 0.0 0.00 72.3 22.4 46.01 4.4
2021 09 15 12:00 218.7 0.0 0.00 74.2 23.5 41.53 5.5
2021 09 15 13:00 222.9 0.0 0.00 75.7 24.3 40.12 6.3
2021 09 15 14:00 225.5 0.0 0.00 76.7 24.8 39.55 5.7
2021 09 15 15:00 218.6 0.0 0.00 77.4 25.2 38.48 5.3
2021 09 15 16:00 216.9 0.0 0.00 77.5 25.3 38.24 5.9
2021 09 15 17:00 225.5 0.0 0.00 76.8 24.9 40.06 5.7
2021 09 15 18:00 226.1 0.0 0.00 74.6 23.6 46.76 2.4
2021 09 15 19:00 233.0 0.0 0.00 69.4 20.8 58.34 0.0
2021 09 15 20:00 237.3 0.0 0.00 63.9 17.7 72.93 0.0
2021 09 15 21:00 238.4 0.0 0.00 61.9 16.6 78.26 0.0
2021 09 15 22:00 262.5 0.0 0.00 59.2 15.1 84.2 0.0
2021 09 15 23:00 275.6 0.0 0.00 58.6 14.8 84.6 0.5
2021 09 15 24:00 243.7 0.0 0.00 60.3 15.7 74.61 4.2
2021 09 16 1:00 238.8 0.0 0.00 60.5 15.9 72.71 3.4
2021 09 16 2:00 236.2 0.0 0.00 59.5 15.3 74.61 3.4
2021 09 16 3:00 243.2 0.0 0.00 57.7 14.3 80.2 0.6
2021 09 16 4:00 267.5 0.0 0.00 56.1 13.4 83.2 0.8
2021 09 16 5:00 273.3 0.0 0.00 54.3 12.4 87.8 1.2
2021 09 16 6:00 Wet 296.5 0.0 0.00 53.0 11.7 88.9 0.3
2021 09 16 7:00 Wet 284.8 0.0 0.00 56.1 13.4 80.4 0.0
2021 09 16 8:00 226.9 0.0 0.00 60.9 16.0 76.93 4.1
2021 09 16 9:00 223.4 0.0 0.00 67.0 19.4 67.3 7.0
2021 09 16 10:00 221.8 0.0 0.00 72.5 22.5 56.4 8.6
2021 09 16 11:00 220.3 0.0 0.00 76.4 24.7 47.55 8.8
2021 09 16 12:00 218.8 0.0 0.00 79.1 26.2 40.29 9.3
2021 09 16 13:00 217.8 0.0 0.00 80.9 27.2 38.54 8.9
2021 09 16 14:00 216.9 0.0 0.00 82.4 28.0 35.84 8.9
2021 09 16 15:00 216.2 0.0 0.00 83.5 28.6 35.16 8.5
2021 09 16 16:00 216.1 0.0 0.00 82.7 28.2 34.95 9.2
2021 09 16 17:00 216.2 0.0 0.00 81.4 27.4 36.07 8.1
2021 09 16 18:00 217.1 0.0 0.00 77.8 25.5 42.54 5.6
2021 09 16 19:00 219.6 0.0 0.00 71.6 22.0 53.12 3.6
2021 09 16 20:00 220.7 0.0 0.00 68.2 20.1 59.57 4.1
2021 09 16 21:00 221.7 0.0 0.00 66.0 18.9 65.11 3.4
2021 09 16 22:00 223.2 0.0 0.00 63.1 17.3 71.84 1.9
2021 09 16 23:00 227.1 0.0 0.00 62.6 17.0 71.51 2.9
2021 09 16 24:00 227.8 0.0 0.00 61.5 16.4 73.75 1.3
2021 09 17 1:00 235.2 0.0 0.00 60.1 15.6 77.79 2.5
2021 09 17 2:00 234.3 0.0 0.00 59.5 15.3 79.83 3.7
2021 09 17 3:00 238.0 0.0 0.00 59.2 15.1 81.2 3.4
2021 09 17 4:00 241.2 0.0 0.00 58.6 14.8 83.5 2.0
2021 09 17 5:00 239.9 0.0 0.00 57.7 14.3 85.8 1.8
2021 09 17 6:00 253.6 0.0 0.00 57.0 13.9 89.4 1.3
2021 09 17 7:00 254.5 0.0 0.00 58.8 14.9 88.3 3.3
2021 09 17 8:00 243.3 0.0 0.00 64.6 18.1 83.2 5.9
2021 09 17 9:00 240.9 0.0 0.00 71.6 22.0 74.97 7.1
2021 09 17 10:00 244.2 0.0 0.00 76.8 24.9 67.23 8.0
2021 09 17 11:00 249.5 0.0 0.00 81.2 27.4 58.16 8.0
2021 09 17 12:00 246.4 0.0 0.00 82.9 28.3 55.21 7.7
2021 09 17 13:00 241.6 0.0 0.00 84.2 29.0 52.74 5.7
2021 09 17 14:00 222.4 0.0 0.00 85.8 29.9 49.08 3.6
2021 09 17 15:00 216.5 0.0 0.00 86.8 30.4 46.99 3.2
2021 09 17 16:00 216.2 0.0 0.00 87.2 30.7 45.33 2.7
2021 09 17 17:00 217.0 0.0 0.00 85.9 30.0 47.51 0.9
2021 09 17 18:00 231.4 0.0 0.00 80.3 26.8 62.16 1.9
2021 09 17 19:00 240.3 0.0 0.00 75.2 24.0 76.63 1.6
2021 09 17 20:00 250.3 0.0 0.00 72.2 22.3 83.2 3.8
2021 09 17 21:00 249.4 0.0 0.00 70.8 21.5 83.8 2.3
2021 09 17 22:00 246.6 0.0 0.00 70.7 21.5 83.4 3.7
2021 09 17 23:00 249.6 0.0 0.00 70.3 21.3 82.3 4.2
2021 09 17 24:00 248.5 0.0 0.00 68.8 20.5 78.88 5.6
2021 09 18 1:00 248.6 0.0 0.00 67.0 19.4 80.3 5.4
2021 09 18 2:00 247.4 0.0 0.00 65.1 18.4 84.1 3.5
2021 09 18 3:00 247.9 0.0 0.00 63.5 17.5 87.5 1.9
2021 09 18 4:00 256.7 0.0 0.00 62.3 16.9 89.9 2.0
2021 09 18 5:00 263.3 0.0 0.00 61.9 16.6 90.8 3.9
2021 09 18 6:00 266.7 0.0 0.00 61.2 16.2 91.8 2.7
2021 09 18 7:00 268.8 0.0 0.00 61.2 16.2 91.9 3.0
2021 09 18 8:00 238.1 0.0 0.00 64.3 17.9 85.6 5.5
2021 09 18 9:00 232.6 0.0 0.00 68.6 20.4 76.67 5.5
2021 09 18 10:00 222.5 0.0 0.00 73.0 22.8 69 3.7
2021 09 18 11:00 220.8 0.0 0.00 78.1 25.6 60.86 2.4
2021 09 18 12:00 233.8 0.0 0.00 82.1 27.8 51.85 2.5
2021 09 18 13:00 228.2 0.0 0.00 84.2 29.0 46.04 3.4
2021 09 18 14:00 216.5 0.0 0.00 85.4 29.6 44.37 1.8
2021 09 18 15:00 216.1 0.0 0.00 86.4 30.2 43.23 3.1
2021 09 18 16:00 215.7 0.0 0.00 86.8 30.5 41.94 3.0
2021 09 18 17:00 222.2 0.0 0.00 86.0 30.0 43.27 2.1
2021 09 18 18:00 250.1 0.0 0.00 83.0 28.3 49.5 0.2
2021 09 18 19:00 251.7 0.0 0.00 76.9 24.9 63.47 0.0
2021 09 18 20:00 247.0 0.0 0.00 73.1 22.8 70.91 0.0
2021 09 18 21:00 246.4 0.0 0.00 70.7 21.5 79.5 0.0
2021 09 18 22:00 272.7 0.0 0.00 67.9 20.0 88.4 0.0
2021 09 18 23:00 Wet 296.8 0.0 0.00 67.5 19.7 87.4 0.0
2021 09 18 24:00 Wet 317.4 0.0 0.00 65.4 18.5 89.9 0.0
2021 09 19 1:00 Wet 349.3 0.0 0.00 63.9 17.7 93.8 0.0
2021 09 19 2:00 Wet 384.6 0.0 0.00 63.1 17.3 94.7 0.0
2021 09 19 3:00 Wet 404.5 0.0 0.00 62.1 16.7 94.5 0.0
2021 09 19 4:00 Wet 420.7 0.0 0.00 61.9 16.6 92.7 0.7
2021 09 19 5:00 Wet 456.0 0.0 0.00 62.0 16.7 94.6 0.0
2021 09 19 6:00 Wet 448.8 0.0 0.00 62.5 16.9 95 0.0
2021 09 19 7:00 Wet 365.0 0.0 0.00 63.9 17.7 92.4 0.1
2021 09 19 8:00 Wet 309.4 0.0 0.00 70.9 21.6 80.8 1.2
2021 09 19 9:00 228.8 0.0 0.00 75.8 24.4 74.78 2.8
2021 09 19 10:00 222.6 0.0 0.00 80.0 26.7 64.89 5.9
2021 09 19 11:00 221.0 0.0 0.00 82.6 28.1 57.18 8.7
2021 09 19 12:00 219.9 0.0 0.00 83.9 28.9 53.36 9.4
2021 09 19 13:00 236.2 0.0 0.00 85.2 29.6 48.77 9.9
2021 09 19 14:00 228.1 0.0 0.00 86.3 30.2 44.18 10.3
2021 09 19 15:00 217.6 0.0 0.00 85.7 29.8 44.04 11.8
2021 09 19 16:00 217.3 0.0 0.00 85.5 29.7 45.3 11.1
2021 09 19 17:00 217.8 0.0 0.00 83.4 28.6 49.72 10.5
2021 09 19 18:00 218.6 0.0 0.00 81.1 27.3 54.16 8.0
2021 09 19 19:00 220.3 0.0 0.00 76.2 24.5 64.74 3.2
2021 09 19 20:00 221.8 0.0 0.00 73.1 22.9 71.52 3.9
2021 09 19 21:00 222.9 0.0 0.00 71.8 22.1 75.37 3.5
2021 09 19 22:00 224.2 0.0 0.00 73.3 23.0 74.17 7.3
2021 09 19 23:00 229.6 0.0 0.00 71.3 21.8 80.4 6.7
2021 09 19 24:00 232.3 0.0 0.00 70.3 21.3 84.4 6.9
2021 09 20 1:00 229.4 0.0 0.00 68.8 20.4 88.8 6.7
2021 09 20 2:00 233.4 0.0 0.00 68.2 20.1 90.8 6.1
2021 09 20 3:00 238.1 0.0 0.00 67.8 19.9 91.9 6.2
2021 09 20 4:00 250.6 0.0 0.00 67.3 19.6 93.2 6.6
2021 09 20 5:00 269.3 0.0 0.00 66.7 19.3 94.2 6.7
2021 09 20 6:00 283.6 0.0 0.00 66.6 19.2 94.4 7.0
2021 09 20 7:00 255.7 0.0 0.00 67.3 19.6 93.8 7.9
2021 09 20 8:00 254.2 0.0 0.00 68.8 20.4 90.9 8.7
2021 09 20 9:00 251.1 0.0 0.00 70.9 21.6 85.8 9.7
2021 09 20 10:00 244.4 0.0 0.00 74.7 23.7 77.27 9.8
2021 09 20 11:00 252.8 0.0 0.00 79.2 26.2 67.33 9.9
2021 09 20 12:00 246.7 0.0 0.00 82.2 27.9 60.55 9.2
2021 09 20 13:00 233.6 0.0 0.00 84.7 29.3 54.64 9.6
2021 09 20 14:00 254.3 0.0 0.00 85.8 29.9 51.17 10.8
2021 09 20 15:00 253.6 0.0 0.00 87.0 30.6 47.15 11.4
2021 09 20 16:00 253.2 0.0 0.00 86.8 30.4 46.54 11.7
2021 09 20 17:00 250.1 0.0 0.00 86.2 30.1 47.78 11.6
2021 09 20 18:00 244.0 0.0 0.00 83.7 28.7 52.06 8.9
2021 09 20 19:00 245.8 0.0 0.00 81.0 27.2 58.26 5.8
2021 09 20 20:00 Wet 415.7 1.4 35.05 72.5 22.5 84 12.0
2021 09 20 21:00 Wet 390.0 0.1 1.52 68.0 20.0 93.6 11.1
2021 09 20 22:00 Wet 352.7 0.0 0.25 64.4 18.0 92.1 11.1
2021 09 20 23:00 268.1 0.0 0.00 63.5 17.5 90 8.6
2021 09 20 24:00 254.9 0.0 0.00 62.7 17.1 89.3 7.3
2021 09 21 1:00 253.6 0.0 0.00 61.4 16.3 89 7.5
2021 09 21 2:00 250.7 0.0 0.00 60.2 15.6 87.9 8.5
2021 09 21 3:00 254.6 0.0 0.00 59.1 15.1 85.4 9.9
2021 09 21 4:00 252.1 0.0 0.00 58.0 14.4 85.6 9.0
2021 09 21 5:00 254.0 0.0 0.00 57.4 14.1 89.8 8.2
2021 09 21 6:00 254.0 0.0 0.00 56.9 13.8 90.2 7.4
2021 09 21 7:00 251.8 0.0 0.00 56.6 13.7 89.3 7.1
2021 09 21 8:00 246.8 0.0 0.00 57.1 13.9 86.1 10.5
2021 09 21 9:00 247.8 0.0 0.00 57.1 13.9 82.1 11.2
2021 09 21 10:00 247.8 0.0 0.00 59.3 15.2 73.49 12.1
2021 09 21 11:00 225.4 0.0 0.00 62.8 17.1 63.84 11.6
2021 09 21 12:00 220.6 0.0 0.00 65.4 18.6 53.74 11.7
2021 09 21 13:00 219.2 0.0 0.00 67.6 19.8 44.3 13.5
2021 09 21 14:00 218.2 0.0 0.00 68.9 20.5 41.86 12.5
2021 09 21 15:00 230.1 0.0 0.00 68.6 20.3 42.04 11.5
2021 09 21 16:00 244.0 0.0 0.00 68.1 20.1 41.54 9.2
2021 09 21 17:00 236.8 0.0 0.00 67.9 20.0 41.58 10.6
2021 09 21 18:00 241.8 0.0 0.00 64.2 17.9 53.09 5.0
2021 09 21 19:00 242.3 0.0 0.00 60.4 15.8 69.58 3.6
2021 09 21 20:00 246.8 0.0 0.00 58.3 14.6 72.93 4.6
2021 09 21 21:00 248.0 0.0 0.00 55.9 13.3 74.22 4.7
2021 09 21 22:00 250.2 0.0 0.00 54.0 12.2 78.21 4.2
2021 09 21 23:00 246.4 0.0 0.00 53.5 11.9 78.68 4.3
2021 09 21 24:00 244.6 0.0 0.00 54.0 12.2 76.14 6.1
2021 09 22 1:00 251.7 0.0 0.00 53.5 12.0 77.61 5.9
2021 09 22 2:00 250.2 0.0 0.00 52.9 11.6 78.98 5.4
2021 09 22 3:00 245.9 0.0 0.00 51.9 11.1 79.22 5.3
2021 09 22 4:00 245.8 0.0 0.00 52.5 11.4 75.34 6.7
2021 09 22 5:00 244.5 0.0 0.00 51.1 10.6 77.46 6.6
2021 09 22 6:00 245.0 0.0 0.00 49.0 9.5 83.1 5.6
2021 09 22 7:00 245.8 0.0 0.00 48.5 9.2 84.5 5.5
2021 09 22 8:00 242.3 0.0 0.00 53.0 11.6 74.03 8.2
2021 09 22 9:00 231.8 0.0 0.00 57.1 13.9 66.09 9.6
2021 09 22 10:00 253.9 0.0 0.00 60.8 16.0 59.56 8.2
2021 09 22 11:00 242.6 0.0 0.00 63.9 17.7 52.08 8.0
2021 09 22 12:00 219.3 0.0 0.00 65.2 18.5 48.94 8.0
2021 09 22 13:00 218.2 0.0 0.00 66.4 19.1 45.29 7.7
2021 09 22 14:00 218.3 0.0 0.00 66.0 18.9 44.29 7.4
2021 09 22 15:00 217.7 0.0 0.00 66.8 19.3 42.85 8.1
2021 09 22 16:00 217.4 0.0 0.00 66.9 19.4 41.94 7.6
2021 09 22 17:00 217.4 0.0 0.00 66.5 19.2 41.27 8.8
2021 09 22 18:00 219.3 0.0 0.00 63.2 17.3 50.55 4.8
2021 09 22 19:00 249.3 0.0 0.00 57.1 13.9 68.26 0.0
2021 09 22 20:00 252.6 0.0 0.00 55.0 12.8 72.93 0.0
2021 09 22 21:00 255.5 0.0 0.00 52.6 11.4 78.45 0.0
2021 09 22 22:00 260.9 0.0 0.00 51.7 10.9 80.5 0.0
2021 09 22 23:00 272.2 0.0 0.00 51.0 10.5 80.6 0.0
2021 09 22 24:00 Wet 293.9 0.0 0.00 50.2 10.1 84.1 0.0
2021 09 23 1:00 Wet 337.1 0.0 0.00 48.7 9.3 85.1 0.0
2021 09 23 2:00 Wet 405.5 0.0 0.00 47.8 8.8 87.5 0.0
2021 09 23 3:00 Wet 457.1 0.0 0.00 46.7 8.2 87.6 0.0
2021 09 23 4:00 Wet 510.3 0.0 0.00 46.0 7.8 89.6 0.0
2021 09 23 5:00 Wet 559.6 0.0 0.00 45.0 7.2 91.8 0.0
2021 09 23 6:00 Wet 572.2 0.0 0.00 44.0 6.7 91.6 0.0
2021 09 23 7:00 Wet 578.0 0.0 0.00 44.7 7.1 93.3 0.0
2021 09 23 8:00 Wet 518.4 0.0 0.00 52.2 11.2 81.5 0.0
2021 09 23 9:00 Wet 340.7 0.0 0.00 59.0 15.0 64.54 0.0
2021 09 23 10:00 221.1 0.0 0.00 63.3 17.4 48.48 1.3
2021 09 23 11:00 219.6 0.0 0.00 65.4 18.6 43.46 5.2
2021 09 23 12:00 218.4 0.0 0.00 67.1 19.5 40.15 6.3
2021 09 23 13:00 217.4 0.0 0.00 68.3 20.2 37.81 6.7
2021 09 23 14:00 216.5 0.0 0.00 69.4 20.8 36.43 6.5
2021 09 23 15:00 216.1 0.0 0.00 69.9 21.1 34.73 6.1
2021 09 23 16:00 216.0 0.0 0.00 70.1 21.2 37.21 5.0
2021 09 23 17:00 216.2 0.0 0.00 69.9 21.1 38.09 3.0
2021 09 23 18:00 219.7 0.0 0.00 68.0 20.0 44.89 0.7
2021 09 23 19:00 229.8 0.0 0.00 60.7 16.0 62.27 0.0
2021 09 23 20:00 254.3 0.0 0.00 55.2 12.9 78.79 0.4
2021 09 23 21:00 283.6 0.0 0.00 51.9 11.1 87.9 0.0
2021 09 23 22:00 Wet 305.0 0.0 0.00 52.2 11.2 81.6 0.0
2021 09 23 23:00 Wet 285.2 0.0 0.00 52.4 11.3 76.51 0.0
2021 09 23 24:00 259.5 0.0 0.00 51.7 11.0 76.03 0.0
2021 09 24 1:00 256.9 0.0 0.00 51.5 10.8 75.83 2.2
2021 09 24 2:00 255.5 0.0 0.00 51.4 10.8 78.02 4.3
2021 09 24 3:00 258.5 0.0 0.00 51.7 11.0 79.08 4.6
2021 09 24 4:00 258.8 0.0 0.00 51.0 10.6 81.7 3.9
2021 09 24 5:00 257.8 0.0 0.00 50.7 10.4 82.1 4.3
2021 09 24 6:00 257.4 0.0 0.00 50.0 10.0 84.6 4.9
2021 09 24 7:00 254.7 0.0 0.00 51.9 11.1 81.3 6.2
2021 09 24 8:00 250.8 0.0 0.00 56.1 13.4 74.07 8.1
2021 09 24 9:00 234.3 0.0 0.00 61.8 16.5 62.71 10.1
2021 09 24 10:00 250.0 0.0 0.00 68.0 20.0 49.78 12.0
2021 09 24 11:00 240.4 0.0 0.00 73.3 23.0 40.57 12.9
2021 09 24 12:00 218.0 0.0 0.00 76.4 24.7 35.26 15.3
2021 09 24 13:00 217.2 0.0 0.00 77.8 25.5 33.57 16.3
2021 09 24 14:00 216.5 0.0 0.00 78.9 26.0 32.14 17.0
2021 09 24 15:00 217.0 0.0 0.00 76.5 24.7 36.11 16.9
2021 09 24 16:00 218.0 0.0 0.00 72.8 22.7 41.09 13.0
2021 09 24 17:00 227.2 0.0 0.00 70.0 21.1 48.44 7.2
2021 09 24 18:00 256.1 0.0 0.00 65.7 18.7 62.27 4.6
2021 09 24 19:00 Wet 309.8 0.0 0.25 64.1 17.9 67.2 9.0
2021 09 24 20:00 Wet 435.3 0.0 1.02 58.8 14.9 87.1 8.2
2021 09 24 21:00 Wet 322.0 0.0 0.25 57.0 13.9 92.7 3.6
2021 09 24 22:00 Wet 294.9 0.0 0.00 56.7 13.7 93.3 5.0
2021 09 24 23:00 Wet 322.8 0.0 0.00 55.4 13.0 93.6 5.4
2021 09 24 24:00 Wet 346.8 0.0 0.00 53.3 11.8 95.4 3.5
2021 09 25 1:00 Wet 359.4 0.0 0.00 52.1 11.1 96.3 0.3
2021 09 25 2:00 Wet 359.1 0.0 0.00 51.0 10.5 97 0.6
2021 09 25 3:00 Wet 354.8 0.0 0.00 49.8 9.9 97 1.5
2021 09 25 4:00 Wet 359.5 0.0 0.00 49.8 9.9 97.4 4.3
2021 09 25 5:00 Wet 354.1 0.0 0.00 49.4 9.6 97.2 4.7
2021 09 25 6:00 Wet 352.4 0.0 0.00 48.7 9.3 96.4 4.9
2021 09 25 7:00 Wet 314.2 0.0 0.00 48.3 9.1 94.7 3.6
2021 09 25 8:00 269.1 0.0 0.00 51.5 10.8 87.4 6.5
2021 09 25 9:00 256.2 0.0 0.00 55.9 13.3 72.98 6.3
2021 09 25 10:00 242.7 0.0 0.00 60.6 15.9 58.52 5.4
2021 09 25 11:00 251.3 0.0 0.00 64.0 17.8 42.48 8.1
2021 09 25 12:00 242.2 0.0 0.00 66.4 19.1 32.2 9.6
2021 09 25 13:00 241.1 0.0 0.00 68.1 20.1 31.68 9.1
2021 09 25 14:00 220.7 0.0 0.00 69.2 20.7 29.98 8.7
2021 09 25 15:00 215.8 0.0 0.00 70.0 21.1 29.59 8.0
2021 09 25 16:00 215.5 0.0 0.00 70.3 21.3 29.33 7.8
2021 09 25 17:00 215.7 0.0 0.00 69.9 21.0 30.18 6.8
2021 09 25 18:00 217.2 0.0 0.00 66.7 19.3 39.22 3.7
2021 09 25 19:00 230.6 0.0 0.00 60.2 15.7 52.61 0.0
2021 09 25 20:00 250.0 0.0 0.00 55.3 13.0 63.56 0.0
2021 09 25 21:00 252.5 0.0 0.00 54.3 12.4 61.46 0.0
2021 09 25 22:00 252.4 0.0 0.00 53.5 11.9 61.76 0.0
2021 09 25 23:00 251.5 0.0 0.00 53.2 11.8 63.14 4.0
2021 09 25 24:00 250.8 0.0 0.00 53.3 11.9 63.79 5.6
2021 09 26 1:00 251.3 0.0 0.00 52.9 11.6 67.55 3.0
2021 09 26 2:00 247.1 0.0 0.00 53.0 11.7 69.87 5.6
2021 09 26 3:00 250.9 0.0 0.00 52.9 11.6 71.07 2.8
2021 09 26 4:00 249.4 0.0 0.00 52.0 11.1 72.58 0.0
2021 09 26 5:00 248.5 0.0 0.00 51.6 10.9 75.07 0.0
2021 09 26 6:00 246.9 0.0 0.00 51.3 10.7 76.01 1.0
2021 09 26 7:00 247.6 0.0 0.00 52.1 11.2 74.44 0.4
2021 09 26 8:00 247.2 0.0 0.00 58.0 14.5 64.67 6.9
2021 09 26 9:00 221.5 0.0 0.00 65.4 18.6 50.98 8.7
2021 09 26 10:00 243.8 0.0 0.00 72.6 22.5 40.94 10.8
2021 09 26 11:00 249.5 0.0 0.00 77.0 25.0 38.56 11.7
2021 09 26 12:00 242.6 0.0 0.00 79.6 26.5 36.32 13.9
2021 09 26 13:00 238.3 0.0 0.00 82.6 28.1 33.97 14.0
2021 09 26 14:00 216.1 0.0 0.00 84.9 29.4 31.71 15.0
2021 09 26 15:00 215.7 0.0 0.00 85.9 30.0 30.51 15.1
2021 09 26 16:00 215.5 0.0 0.00 85.6 29.8 31.24 14.9
2021 09 26 17:00 216.0 0.0 0.00 84.2 29.0 33.61 14.5
2021 09 26 18:00 216.9 0.0 0.00 80.5 26.9 39.34 9.4
2021 09 26 19:00 218.2 0.0 0.00 76.0 24.5 45.66 7.5
2021 09 26 20:00 218.2 0.0 0.00 75.2 24.0 45.52 9.2
2021 09 26 21:00 218.7 0.0 0.00 72.4 22.5 50.49 7.6
2021 09 26 22:00 219.0 0.0 0.00 71.6 22.0 53.62 8.7
2021 09 26 23:00 219.6 0.0 0.00 70.2 21.2 56.86 8.3
2021 09 26 24:00 219.7 0.0 0.00 70.2 21.2 56.06 9.1
2021 09 27 1:00 219.7 0.0 0.00 69.4 20.8 56.66 8.7
2021 09 27 2:00 220.1 0.0 0.00 67.5 19.7 60.21 8.2
2021 09 27 3:00 220.4 0.0 0.00 65.4 18.5 64.22 7.2
2021 09 27 4:00 220.3 0.0 0.00 66.7 19.3 59.07 8.7
2021 09 27 5:00 219.8 0.0 0.00 68.5 20.3 53.68 10.2
2021 09 27 6:00 219.9 0.0 0.00 68.8 20.4 52.27 11.8
2021 09 27 7:00 219.7 0.0 0.00 69.8 21.0 49.98 12.9
2021 09 27 8:00 219.0 0.0 0.00 71.0 21.7 49.66 14.0
2021 09 27 9:00 218.9 0.0 0.00 73.0 22.8 47.78 15.1
2021 09 27 10:00 218.5 0.0 0.00 76.3 24.6 43.34 16.0
2021 09 27 11:00 217.7 0.0 0.00 79.3 26.3 39.19 16.3
2021 09 27 12:00 217.0 0.0 0.00 81.8 27.7 35.97 16.8
2021 09 27 13:00 216.2 0.0 0.00 83.9 28.9 34.04 15.5
2021 09 27 14:00 215.6 0.0 0.00 85.8 29.9 32.74 14.1
2021 09 27 15:00 215.3 0.0 0.00 86.3 30.2 32.37 13.7
2021 09 27 16:00 215.3 0.0 0.00 86.4 30.2 34.04 10.5
2021 09 27 17:00 215.6 0.0 0.00 85.0 29.4 36.57 7.7
2021 09 27 18:00 216.9 0.0 0.00 81.0 27.2 41.88 4.9
2021 09 27 19:00 218.8 0.0 0.00 75.6 24.2 51.62 1.4
2021 09 27 20:00 223.8 0.0 0.00 68.5 20.2 73.83 0.0
2021 09 27 21:00 240.1 0.0 0.00 64.8 18.2 82.2 0.0
2021 09 27 22:00 234.1 0.0 0.00 64.3 18.0 78.77 0.2
2021 09 27 23:00 223.3 0.0 0.00 65.3 18.5 68.99 3.3
2021 09 27 24:00 223.3 0.0 0.00 65.4 18.5 69.73 2.3
2021 09 28 1:00 223.9 0.0 0.00 64.6 18.1 71.46 0.0
2021 09 28 2:00 225.7 0.0 0.00 62.3 16.8 78.43 0.0
2021 09 28 3:00 226.8 0.0 0.00 60.9 16.1 79.7 0.0
2021 09 28 4:00 249.4 0.0 0.00 59.1 15.0 85.6 0.0
2021 09 28 5:00 267.6 0.0 0.00 57.3 14.1 88.4 0.0
2021 09 28 6:00 Wet 296.5 0.0 0.00 55.1 12.8 91.8 0.0
2021 09 28 7:00 Wet 319.4 0.0 0.00 54.6 12.5 94.3 0.0
2021 09 28 8:00 269.4 0.0 0.00 62.8 17.1 83 0.0
2021 09 28 9:00 222.7 0.0 0.00 69.7 20.9 67.49 4.0
2021 09 28 10:00 236.5 0.0 0.00 75.1 23.9 56.04 1.4
2021 09 28 11:00 244.8 0.0 0.00 80.0 26.7 45.19 0.9
2021 09 28 12:00 243.6 0.0 0.00 82.5 28.0 41.09 3.3
2021 09 28 13:00 246.1 0.0 0.00 85.1 29.5 38.23 3.2
2021 09 28 14:00 228.6 0.0 0.00 86.6 30.3 36.92 3.9
2021 09 28 15:00 214.4 0.0 0.00 87.7 30.9 34.97 3.8
2021 09 28 16:00 214.4 0.0 0.00 88.0 31.1 33.17 4.1
2021 09 28 17:00 214.8 0.0 0.00 86.6 30.4 36.03 1.5
2021 09 28 18:00 216.5 0.0 0.00 82.3 28.0 42.7 0.0
2021 09 28 19:00 224.4 0.0 0.00 74.8 23.8 55.5 0.5
2021 09 28 20:00 246.4 0.0 0.00 69.2 20.6 72.41 0.7
2021 09 28 21:00 252.9 0.0 0.00 68.2 20.1 72.26 0.8
2021 09 28 22:00 253.4 0.0 0.00 66.3 19.1 75.13 0.7
2021 09 28 23:00 268.1 0.0 0.00 63.7 17.6 84.6 0.1
2021 09 28 24:00 Wet 317.8 0.0 0.00 62.1 16.7 90 0.0
2021 09 29 1:00 Wet 354.1 0.0 0.00 60.9 16.1 91.3 0.3
2021 09 29 2:00 Wet 396.7 0.0 0.00 59.7 15.4 94.5 0.0
2021 09 29 3:00 Wet 443.8 0.0 0.00 58.8 14.9 94.4 0.0
2021 09 29 4:00 Wet 474.6 0.0 0.00 58.7 14.8 93.8 0.3
2021 09 29 5:00 Wet 518.0 0.0 0.00 59.1 15.1 92.2 0.0
2021 09 29 6:00 Wet 540.9 0.0 0.00 57.8 14.3 92.6 1.2
2021 09 29 7:00 Wet 525.7 0.0 0.00 57.9 14.4 92.7 0.2
2021 09 29 8:00 Wet 472.4 0.0 0.00 63.2 17.3 85.5 2.4
2021 09 29 9:00 282.8 0.0 0.00 69.9 21.1 73.89 4.5
2021 09 29 10:00 240.2 0.0 0.00 75.1 23.9 65.43 5.0
2021 09 29 11:00 246.3 0.0 0.00 79.1 26.2 59.32 6.3
2021 09 29 12:00 249.9 0.0 0.00 81.3 27.4 51.01 8.9
2021 09 29 13:00 255.1 0.0 0.00 82.3 28.0 49.28 9.2
2021 09 29 14:00 229.0 0.0 0.00 83.6 28.6 46.25 8.7
2021 09 29 15:00 236.4 0.0 0.00 83.2 28.4 46.85 7.2
2021 09 29 16:00 257.9 0.0 0.00 81.8 27.7 49.86 4.0
2021 09 29 17:00 256.9 0.0 0.00 80.9 27.2 53.94 4.2
2021 09 29 18:00 233.7 0.0 0.00 78.1 25.6 59.49 5.0
2021 09 29 19:00 248.4 0.0 0.00 75.5 24.2 64.16 4.9
2021 09 29 20:00 243.5 0.0 0.00 74.2 23.4 65.98 4.9
2021 09 29 21:00 221.3 0.0 0.00 72.7 22.6 68.64 4.6
2021 09 29 22:00 221.6 0.0 0.00 71.2 21.8 71.16 3.5
2021 09 29 23:00 222.2 0.0 0.00 70.5 21.4 71.67 0.4
2021 09 29 24:00 222.4 0.0 0.00 69.9 21.1 73.47 3.3
2021 09 30 1:00 227.3 0.0 0.00 68.3 20.1 76.7 0.0
2021 09 30 2:00 231.7 0.0 0.00 66.3 19.0 81.3 0.0
2021 09 30 3:00 233.5 0.0 0.00 63.4 17.4 88.3 0.0
2021 09 30 4:00 235.3 0.0 0.00 63.1 17.3 89.8 0.4
2021 09 30 5:00 235.2 0.0 0.00 63.2 17.3 89.9 2.4
2021 09 30 6:00 235.2 0.0 0.00 62.5 16.9 91.2 1.8
2021 09 30 7:00 231.0 0.0 0.00 62.6 17.0 91.6 2.4
2021 09 30 8:00 248.1 0.0 0.00 65.7 18.7 86.9 2.9
2021 09 30 9:00 240.3 0.0 0.00 70.5 21.4 77.83 2.9
2021 09 30 10:00 241.1 0.0 0.00 75.8 24.4 68.67 2.7
2021 09 30 11:00 241.1 0.0 0.00 79.2 26.2 62.19 5.7
2021 09 30 12:00 239.9 0.0 0.00 81.4 27.4 57.87 6.5
2021 09 30 13:00 235.5 0.0 0.00 82.9 28.3 53.66 8.0
2021 09 30 14:00 218.3 0.0 0.00 83.3 28.5 50.86 7.3
2021 09 30 15:00 218.3 0.0 0.00 83.4 28.6 49.46 8.3
2021 09 30 16:00 218.3 0.0 0.00 82.8 28.2 50.22 8.3
2021 09 30 17:00 281.1 0.0 0.25 75.0 23.9 67.61 13.8
2021 09 30 18:00 255.8 0.0 0.00 68.6 20.4 83.5 6.4
2021 09 30 19:00 256.1 0.0 0.00 67.4 19.7 83.1 4.0
2021 09 30 20:00 254.4 0.0 0.00 65.4 18.6 85.7 2.3
2021 09 30 21:00 258.9 0.0 0.00 63.9 17.7 86.8 2.7
2021 09 30 22:00 259.7 0.0 0.00 62.7 17.1 89.6 3.2
2021 09 30 23:00 258.7 0.0 0.00 63.6 17.6 88.2 3.4
2021 09 30 24:00 256.4 0.0 0.00 63.6 17.5 89.3 3.0
2021 10 01 1:00 255.0 0.0 0.00 63.5 17.5 90.1 2.6
2021 10 01 2:00 266.5 0.0 0.00 62.3 16.9 92.9 2.3
2021 10 01 3:00 Wet 317.2 0.0 0.00 61.4 16.4 94.6 2.0
2021 10 01 4:00 Wet 388.2 0.0 0.00 59.6 15.4 96.8 2.1
2021 10 01 5:00 Wet 470.2 0.0 0.00 58.9 15.0 97.3 3.0
2021 10 01 6:00 Wet 513.9 0.0 0.00 60.0 15.5 97.7 3.4
2021 10 01 7:00 Wet 540.0 0.0 0.00 60.6 15.9 97.5 4.9
2021 10 01 8:00 Wet 474.4 0.0 0.00 64.5 18.1 92.8 6.0
2021 10 01 9:00 Wet 284.2 0.0 0.00 67.8 19.9 86.2 7.2
2021 10 01 10:00 247.5 0.0 0.00 69.5 20.9 83.2 8.1
2021 10 01 11:00 248.8 0.0 0.00 71.2 21.8 79.48 8.2
2021 10 01 12:00 245.7 0.0 0.00 70.8 21.6 79.3 9.4
2021 10 01 13:00 247.0 0.0 0.00 73.0 22.8 74.22 8.2
2021 10 01 14:00 235.7 0.0 0.00 73.8 23.2 70.23 9.1
2021 10 01 15:00 225.8 0.0 0.00 75.4 24.1 66.42 8.5
2021 10 01 16:00 250.5 0.0 0.00 75.7 24.2 65.62 7.8
2021 10 01 17:00 255.2 0.0 0.00 74.9 23.8 68.12 5.3
2021 10 01 18:00 254.1 0.0 0.00 73.0 22.8 73.59 3.2
2021 10 01 19:00 253.1 0.0 0.00 71.3 21.8 78.17 0.0
2021 10 01 20:00 251.6 0.0 0.00 69.1 20.6 82.5 0.0
2021 10 01 21:00 250.8 0.0 0.00 67.5 19.7 87.3 0.0
2021 10 01 22:00 253.8 0.0 0.00 68.0 20.0 87.5 2.4
2021 10 01 23:00 254.5 0.0 0.00 67.9 20.0 89 3.3
2021 10 01 24:00 252.2 0.0 0.00 67.2 19.6 91.1 0.6
2021 10 02 1:00 256.6 0.0 0.00 66.4 19.1 93 1.0
2021 10 02 2:00 267.9 0.0 0.00 66.1 18.9 93.9 3.0
2021 10 02 3:00 Wet 451.4 0.2 4.57 66.7 19.3 94.5 7.1
2021 10 02 4:00 Wet 422.6 0.1 2.54 65.9 18.8 96.5 0.5
2021 10 02 5:00 Wet 325.0 0.0 0.25 65.0 18.3 96.5 1.6
2021 10 02 6:00 Wet 316.4 0.0 0.00 64.0 17.8 96.8 1.1
2021 10 02 7:00 Wet 317.0 0.0 0.00 63.8 17.7 97.4 2.1
2021 10 02 8:00 276.9 0.0 0.00 65.7 18.7 97.8 4.8
2021 10 02 9:00 250.2 0.0 0.00 66.3 19.1 97.7 5.9
2021 10 02 10:00 242.3 0.0 0.00 68.3 20.2 93.2 5.1
2021 10 02 11:00 232.3 0.0 0.00 70.5 21.4 86.3 5.0
2021 10 02 12:00 224.0 0.0 0.00 71.3 21.8 83.1 6.3
2021 10 02 13:00 222.9 0.0 0.00 72.7 22.6 76.36 7.7
2021 10 02 14:00 221.9 0.0 0.00 73.7 23.2 71.4 7.2
2021 10 02 15:00 222.1 0.0 0.00 73.8 23.2 69.78 6.5
2021 10 02 16:00 222.2 0.0 0.00 73.8 23.2 68.64 5.4
2021 10 02 17:00 222.6 0.0 0.00 73.2 22.9 71.15 3.7
2021 10 02 18:00 259.1 0.0 0.00 71.0 21.7 79.1 1.2
2021 10 02 19:00 246.7 0.0 0.00 67.7 19.8 88.5 0.0
2021 10 02 20:00 246.6 0.0 0.00 65.9 18.8 88.8 0.0
2021 10 02 21:00 234.3 0.0 0.00 64.6 18.1 89.6 0.0
2021 10 02 22:00 230.1 0.0 0.00 65.0 18.4 87.9 0.0
2021 10 02 23:00 236.4 0.0 0.00 64.0 17.8 90.3 0.0
2021 10 02 24:00 232.0 0.0 0.00 63.8 17.6 92 0.0
2021 10 03 1:00 Wet 321.7 0.0 0.25 63.8 17.6 90.5 0.0
2021 10 03 2:00 Wet 326.4 0.0 0.51 62.7 17.0 93.9 0.1
2021 10 03 3:00 277.4 0.0 0.25 62.6 17.0 93.8 3.9
2021 10 03 4:00 239.9 0.0 0.00 62.2 16.8 94.5 3.5
2021 10 03 5:00 244.2 0.0 0.00 62.0 16.7 95 2.0
2021 10 03 6:00 Wet 335.7 0.0 0.51 62.2 16.8 95.5 2.0
2021 10 03 7:00 258.1 0.0 0.00 62.4 16.9 95.6 2.5
2021 10 03 8:00 230.5 0.0 0.00 63.2 17.3 94.9 4.9
2021 10 03 9:00 228.3 0.0 0.00 64.1 17.8 93.1 5.7
2021 10 03 10:00 225.4 0.0 0.00 66.4 19.1 86.1 7.3
2021 10 03 11:00 224.2 0.0 0.00 67.9 20.0 80.1 9.1
2021 10 03 12:00 228.1 0.0 0.00 68.3 20.2 78.09 9.0
2021 10 03 13:00 223.2 0.0 0.00 69.5 20.9 74.27 10.3
2021 10 03 14:00 222.6 0.0 0.00 70.6 21.4 70.98 10.6
2021 10 03 15:00 222.1 0.0 0.00 71.3 21.8 67.73 8.6
2021 10 03 16:00 221.2 0.0 0.00 72.8 22.7 62.35 8.4
2021 10 03 17:00 221.3 0.0 0.00 72.4 22.5 60.95 7.8
2021 10 03 18:00 223.1 0.0 0.00 68.8 20.5 71.8 3.0
2021 10 03 19:00 224.7 0.0 0.00 64.6 18.1 78.95 2.3
2021 10 03 20:00 227.2 0.0 0.00 62.3 16.8 83.5 2.6
2021 10 03 21:00 229.5 0.0 0.00 61.0 16.1 84.5 2.9
2021 10 03 22:00 233.0 0.0 0.00 59.5 15.2 84.5 3.6
2021 10 03 23:00 234.1 0.0 0.00 57.7 14.3 82.7 4.1
2021 10 03 24:00 226.9 0.0 0.00 56.8 13.8 79.3 3.9
2021 10 04 1:00 227.3 0.0 0.00 55.3 13.0 80.3 3.6
2021 10 04 2:00 228.6 0.0 0.00 54.2 12.3 80.8 3.1
2021 10 04 3:00 228.5 0.0 0.00 53.2 11.8 81.3 3.4
2021 10 04 4:00 230.1 0.0 0.00 51.8 11.0 83.7 3.1
2021 10 04 5:00 245.1 0.0 0.00 51.3 10.7 86.3 1.2
2021 10 04 6:00 264.8 0.0 0.00 50.4 10.2 87.9 3.2
2021 10 04 7:00 272.0 0.0 0.00 50.6 10.3 89.5 0.8
2021 10 04 8:00 232.9 0.0 0.00 56.4 13.6 85.2 6.2
2021 10 04 9:00 225.1 0.0 0.00 61.4 16.3 78.44 8.4
2021 10 04 10:00 223.7 0.0 0.00 64.7 18.2 72.11 8.7
2021 10 04 11:00 222.2 0.0 0.00 66.2 19.0 66.83 9.9
2021 10 04 12:00 221.3 0.0 0.00 67.5 19.7 62.46 9.0
2021 10 04 13:00 220.2 0.0 0.00 68.5 20.3 60.13 7.6
2021 10 04 14:00 220.2 0.0 0.00 69.8 21.0 60.75 7.8
2021 10 04 15:00 218.9 0.0 0.00 72.0 22.2 56.88 7.4
2021 10 04 16:00 219.1 0.0 0.00 72.2 22.3 55.17 5.7
2021 10 04 17:00 218.8 0.0 0.00 72.2 22.4 53.74 4.5
2021 10 04 18:00 220.1 0.0 0.00 70.4 21.3 56.86 1.9
2021 10 04 19:00 222.6 0.0 0.00 65.5 18.6 70.57 3.2
2021 10 04 20:00 231.2 0.0 0.00 61.4 16.4 83.2 1.7
2021 10 04 21:00 271.7 0.0 0.00 59.0 15.0 89.5 0.1
2021 10 04 22:00 Wet 310.8 0.0 0.00 56.9 13.8 93.8 0.0
2021 10 04 23:00 Wet 319.2 0.0 0.00 57.9 14.4 94.6 0.9
2021 10 04 24:00 Wet 296.6 0.0 0.00 59.2 15.1 92.7 2.5
2021 10 05 1:00 266.0 0.0 0.00 59.5 15.3 91.3 3.3
2021 10 05 2:00 230.0 0.0 0.00 60.1 15.6 89.7 3.6
2021 10 05 3:00 226.6 0.0 0.00 60.5 15.8 90.2 3.2
2021 10 05 4:00 226.6 0.0 0.00 61.4 16.3 90 3.6
2021 10 05 5:00 226.6 0.0 0.00 61.5 16.4 90.6 4.5
2021 10 05 6:00 226.6 0.0 0.00 61.7 16.5 91.3 4.9
2021 10 05 7:00 226.6 0.0 0.00 61.8 16.6 92 4.9
2021 10 05 8:00 226.4 0.0 0.00 62.4 16.9 91.3 5.3
2021 10 05 9:00 225.4 0.0 0.00 63.7 17.6 86.9 6.3
2021 10 05 10:00 224.4 0.0 0.00 65.4 18.5 82.1 6.8
2021 10 05 11:00 223.8 0.0 0.00 66.5 19.1 77.37 7.8
2021 10 05 12:00 223.0 0.0 0.00 67.4 19.7 73.38 8.0
2021 10 05 13:00 221.2 0.0 0.00 69.3 20.7 66.68 6.7
2021 10 05 14:00 220.4 0.0 0.00 70.8 21.6 62.81 6.3
2021 10 05 15:00 221.6 0.0 0.00 69.7 21.0 64.92 6.0
2021 10 05 16:00 221.9 0.0 0.00 69.5 20.8 66.76 5.9
2021 10 05 17:00 222.4 0.0 0.00 68.4 20.2 69.69 5.8
2021 10 05 18:00 222.9 0.0 0.00 67.2 19.6 73.73 4.4
2021 10 05 19:00 223.5 0.0 0.00 65.7 18.7 78.18 3.9
2021 10 05 20:00 223.8 0.0 0.00 65.0 18.3 80.2 5.6
2021 10 05 21:00 223.8 0.0 0.00 64.6 18.1 81.7 5.5
2021 10 05 22:00 224.4 0.0 0.00 63.8 17.7 84.1 4.5
2021 10 05 23:00 224.5 0.0 0.00 63.3 17.4 85.6 4.8
2021 10 05 24:00 224.6 0.0 0.00 63.0 17.2 86.9 3.3
2021 10 06 1:00 225.2 0.0 0.00 62.8 17.1 88 3.2
2021 10 06 2:00 225.2 0.0 0.00 62.7 17.1 88.7 4.1
2021 10 06 3:00 225.2 0.0 0.00 62.9 17.2 89.1 5.1
2021 10 06 4:00 225.2 0.0 0.00 62.9 17.2 90.3 4.6
2021 10 06 5:00 225.8 0.0 0.00 62.7 17.1 91 4.3
2021 10 06 6:00 225.8 0.0 0.00 62.6 17.0 91.7 5.5
2021 10 06 7:00 225.8 0.0 0.00 62.3 16.8 92.6 6.8
2021 10 06 8:00 225.8 0.0 0.00 62.5 16.9 92.2 5.9
2021 10 06 9:00 225.4 0.0 0.00 62.8 17.1 91.8 7.8
2021 10 06 10:00 225.6 0.0 0.00 63.3 17.4 91.4 7.4
2021 10 06 11:00 226.2 0.0 0.00 63.9 17.7 90.9 7.1
2021 10 06 12:00 225.6 0.0 0.00 63.9 17.7 90.4 7.7
2021 10 06 13:00 230.4 0.0 0.00 64.3 18.0 90.9 8.0
2021 10 06 14:00 226.3 0.0 0.00 64.1 17.8 92.8 7.5
2021 10 06 15:00 227.3 0.0 0.00 64.1 17.9 94.5 7.5
2021 10 06 16:00 Wet 314.8 0.1 1.27 64.3 17.9 95.5 6.0
2021 10 06 17:00 246.9 0.0 0.00 64.5 18.1 95.4 6.2
2021 10 06 18:00 231.5 0.0 0.00 64.2 17.9 95.6 6.2
2021 10 06 19:00 231.8 0.0 0.00 63.9 17.7 96.2 6.2
2021 10 06 20:00 230.3 0.0 0.00 64.2 17.9 95.9 6.7
2021 10 06 21:00 229.1 0.0 0.00 64.3 17.9 95.8 6.6
2021 10 06 22:00 228.6 0.0 0.00 64.6 18.1 95.7 5.8
2021 10 06 23:00 229.6 0.0 0.00 64.7 18.2 96 5.6
2021 10 06 24:00 228.7 0.0 0.00 64.8 18.2 95.5 5.3
2021 10 07 1:00 229.0 0.0 0.00 64.7 18.2 95.5 5.0
2021 10 07 2:00 228.3 0.0 0.00 64.7 18.2 94.2 4.6
2021 10 07 3:00 228.5 0.0 0.00 64.5 18.1 94.4 3.0
2021 10 07 4:00 229.2 0.0 0.00 64.2 17.9 95.6 3.1
2021 10 07 5:00 229.2 0.0 0.00 64.1 17.8 95.7 3.4
2021 10 07 6:00 230.1 0.0 0.00 63.9 17.7 95.9 1.8
2021 10 07 7:00 232.5 0.0 0.00 63.7 17.6 96.5 1.6
2021 10 07 8:00 228.4 0.0 0.00 64.2 17.9 95.7 2.1
2021 10 07 9:00 227.1 0.0 0.00 64.8 18.2 93.1 1.9
2021 10 07 10:00 226.1 0.0 0.00 65.6 18.7 90.2 2.5
2021 10 07 11:00 224.8 0.0 0.00 67.4 19.6 85.4 4.8
2021 10 07 12:00 224.0 0.0 0.00 68.3 20.2 79.97 3.2
2021 10 07 13:00 223.9 0.0 0.00 68.5 20.3 79.71 4.0
2021 10 07 14:00 223.4 0.0 0.00 69.2 20.7 76.52 2.1
2021 10 07 15:00 223.0 0.0 0.00 70.3 21.3 72.31 2.2
2021 10 07 16:00 230.8 0.0 0.00 70.1 21.2 72.81 3.7
2021 10 07 17:00 223.3 0.0 0.00 69.6 20.9 75.21 4.1
2021 10 07 18:00 223.9 0.0 0.00 67.6 19.8 74.05 3.1
2021 10 07 19:00 225.4 0.0 0.00 63.6 17.5 81.1 3.4
2021 10 07 20:00 226.4 0.0 0.00 61.8 16.6 85.1 2.9
2021 10 07 21:00 230.4 0.0 0.00 60.8 16.0 88.8 1.4
2021 10 07 22:00 232.6 0.0 0.00 59.5 15.3 92.1 2.2
2021 10 07 23:00 250.7 0.0 0.00 59.5 15.3 94.1 0.4
2021 10 07 24:00 270.5 0.0 0.00 59.0 15.0 95.9 1.8
2021 10 08 1:00 Wet 292.6 0.0 0.00 59.4 15.2 96.3 1.8
2021 10 08 2:00 Wet 314.4 0.0 0.00 59.1 15.1 96.2 1.2
2021 10 08 3:00 Wet 342.4 0.0 0.00 58.3 14.6 96.6 1.7
2021 10 08 4:00 Wet 396.2 0.0 0.00 57.3 14.1 97.2 2.9
2021 10 08 5:00 Wet 442.1 0.0 0.00 57.5 14.2 97.4 2.8
2021 10 08 6:00 Wet 440.4 0.0 0.00 56.4 13.6 97.3 1.6
2021 10 08 7:00 Wet 393.3 0.0 0.00 55.2 12.9 97.7 2.2
2021 10 08 8:00 Wet 292.7 0.0 0.00 59.9 15.5 96.3 3.8
2021 10 08 9:00 235.9 0.0 0.00 65.5 18.6 84.7 4.5
2021 10 08 10:00 223.8 0.0 0.00 71.4 21.9 69.45 5.8
2021 10 08 11:00 222.3 0.0 0.00 74.3 23.5 60 6.7
2021 10 08 12:00 220.7 0.0 0.00 76.7 24.8 52.98 6.2
2021 10 08 13:00 219.4 0.0 0.00 78.3 25.7 48.82 5.7
2021 10 08 14:00 217.8 0.0 0.00 79.9 26.6 45.15 4.6
2021 10 08 15:00 217.4 0.0 0.00 80.3 26.8 45.81 6.0
2021 10 08 16:00 218.7 0.0 0.00 78.6 25.9 50.12 5.9
2021 10 08 17:00 219.5 0.0 0.00 76.8 24.9 54.99 4.7
2021 10 08 18:00 220.7 0.0 0.00 74.1 23.4 59.89 3.8
2021 10 08 19:00 222.3 0.0 0.00 69.7 21.0 68.11 0.9
2021 10 08 20:00 222.9 0.0 0.00 68.4 20.2 70.23 4.4
2021 10 08 21:00 223.0 0.0 0.00 68.0 20.0 71.17 4.3
2021 10 08 22:00 223.1 0.0 0.00 67.1 19.5 73.68 3.4
2021 10 08 23:00 223.9 0.0 0.00 65.2 18.4 78.47 3.3
2021 10 08 24:00 224.5 0.0 0.00 63.5 17.5 83.3 2.8
2021 10 09 1:00 225.2 0.0 0.00 63.3 17.4 84.5 3.7
2021 10 09 2:00 226.2 0.0 0.00 62.4 16.9 86.6 2.2
2021 10 09 3:00 230.7 0.0 0.00 61.4 16.4 89 1.6
2021 10 09 4:00 237.8 0.0 0.00 59.8 15.4 92.7 2.8
2021 10 09 5:00 251.4 0.0 0.00 59.8 15.5 93 2.3
2021 10 09 6:00 272.8 0.0 0.00 58.8 14.9 95.5 2.9
2021 10 09 7:00 Wet 291.2 0.0 0.00 59.8 15.4 95.9 3.6
2021 10 09 8:00 273.2 0.0 0.00 62.5 17.0 93.6 4.5
2021 10 09 9:00 225.6 0.0 0.00 66.7 19.3 85 4.9
2021 10 09 10:00 223.7 0.0 0.00 70.8 21.6 73.76 6.6
2021 10 09 11:00 222.5 0.0 0.00 74.1 23.4 64.93 7.5
2021 10 09 12:00 221.8 0.0 0.00 75.7 24.3 61.23 8.3
2021 10 09 13:00 221.5 0.0 0.00 76.2 24.6 60.18 8.0
2021 10 09 14:00 221.6 0.0 0.00 76.2 24.6 60.04 9.1
2021 10 09 15:00 221.6 0.0 0.00 76.9 24.9 59.12 9.1
2021 10 09 16:00 221.5 0.0 0.00 76.8 24.9 59.38 8.8
2021 10 09 17:00 222.0 0.0 0.00 75.7 24.2 62.26 8.2
2021 10 09 18:00 222.6 0.0 0.00 73.8 23.2 67.96 7.3
2021 10 09 19:00 223.0 0.0 0.00 72.8 22.7 71.23 7.9
2021 10 09 20:00 223.0 0.0 0.00 72.7 22.6 71.48 8.5
2021 10 09 21:00 223.0 0.0 0.00 73.1 22.8 68.99 9.4
2021 10 09 22:00 223.0 0.0 0.00 72.1 22.3 67.6 8.4
2021 10 09 23:00 223.0 0.0 0.00 70.8 21.6 66.69 5.1
2021 10 09 24:00 222.6 0.0 0.00 71.0 21.6 62.44 6.9
2021 10 10 1:00 222.4 0.0 0.00 71.5 21.9 59.99 8.0
2021 10 10 2:00 222.4 0.0 0.00 71.0 21.7 61.76 8.6
2021 10 10 3:00 222.3 0.0 0.00 70.5 21.4 61.43 9.2
2021 10 10 4:00 222.3 0.0 0.00 70.0 21.1 62.05 9.3
2021 10 10 5:00 222.7 0.0 0.00 69.1 20.6 64.8 9.1
2021 10 10 6:00 241.2 0.0 0.00 68.2 20.1 68.99 8.9
2021 10 10 7:00 245.5 0.0 0.00 66.8 19.4 76.42 9.0
2021 10 10 8:00 281.3 0.1 1.52 65.4 18.6 84.1 6.9
2021 10 10 9:00 230.6 0.0 0.00 67.4 19.7 82.8 7.1
2021 10 10 10:00 222.7 0.0 0.00 73.8 23.2 66.82 10.7
2021 10 10 11:00 221.6 0.0 0.00 75.3 24.1 61.46 11.8
2021 10 10 12:00 220.8 0.0 0.00 76.6 24.8 59.21 10.2
2021 10 10 13:00 220.0 0.0 0.00 78.9 26.1 55.09 8.6
2021 10 10 14:00 219.1 0.0 0.00 80.9 27.2 51.06 9.6
2021 10 10 15:00 220.2 0.0 0.00 79.0 26.1 55.25 8.5
2021 10 10 16:00 219.9 0.0 0.00 79.3 26.3 56.12 9.1
2021 10 10 17:00 220.5 0.0 0.00 77.9 25.5 59.6 7.9
2021 10 10 18:00 221.5 0.0 0.00 75.7 24.3 64.82 4.0
2021 10 10 19:00 222.4 0.0 0.00 73.1 22.8 70.26 0.8
2021 10 10 20:00 223.0 0.0 0.00 71.4 21.9 74.59 4.5
2021 10 10 21:00 222.9 0.0 0.00 66.4 19.1 74.2 6.5
2021 10 10 22:00 223.1 0.0 0.00 65.0 18.3 77.2 4.0
2021 10 10 23:00 223.4 0.0 0.00 64.2 17.9 79.94 5.0
2021 10 10 24:00 223.7 0.0 0.00 62.4 16.9 82.4 10.4
2021 10 11 1:00 223.8 0.0 0.00 60.5 15.8 81.3 6.6
2021 10 11 2:00 224.3 0.0 0.00 59.5 15.2 85.1 5.3
2021 10 11 3:00 227.4 0.0 0.00 59.2 15.1 86.6 6.9
2021 10 11 4:00 Wet 379.0 0.1 3.56 58.5 14.7 92.4 5.5
2021 10 11 5:00 Wet 335.6 0.0 1.02 57.9 14.4 96 7.2
2021 10 11 6:00 249.1 0.0 0.00 58.2 14.6 96.3 8.5
2021 10 11 7:00 Wet 322.0 0.1 1.78 58.4 14.7 96.7 9.2
2021 10 11 8:00 240.8 0.0 0.00 58.5 14.7 97 9.8
2021 10 11 9:00 241.3 0.0 0.00 59.1 15.1 97.2 6.4
2021 10 11 10:00 256.7 0.0 0.00 61.3 16.3 96.5 5.6
2021 10 11 11:00 268.3 0.0 0.25 63.9 17.7 94.6 5.6
2021 10 11 12:00 231.2 0.0 0.00 66.1 19.0 87.6 4.4
2021 10 11 13:00 222.1 0.0 0.00 69.0 20.6 67.34 10.0
2021 10 11 14:00 221.9 0.0 0.00 66.7 19.3 66.53 9.6
2021 10 11 15:00 222.4 0.0 0.00 65.2 18.4 74.22 7.8
2021 10 11 16:00 Wet 371.9 0.0 0.51 60.4 15.8 92 10.7
2021 10 11 17:00 267.9 0.0 0.00 58.5 14.7 95.4 10.5
2021 10 11 18:00 236.0 0.0 0.00 56.6 13.7 95.3 10.9
2021 10 11 19:00 Wet 364.9 0.0 0.25 56.1 13.4 96 9.5
2021 10 11 20:00 247.0 0.0 0.00 56.4 13.5 93.7 10.6
2021 10 11 21:00 227.0 0.0 0.00 55.9 13.2 91 9.3
2021 10 11 22:00 226.1 0.0 0.00 56.0 13.3 87.5 8.0
2021 10 11 23:00 226.2 0.0 0.00 55.4 13.0 85.4 7.2
2021 10 11 24:00 227.1 0.0 0.00 54.1 12.3 86.8 7.1
2021 10 12 1:00 237.5 0.0 0.00 52.6 11.4 89.7 5.7
2021 10 12 2:00 253.0 0.0 0.00 51.7 10.9 89.7 5.5
2021 10 12 3:00 273.9 0.0 0.00 50.8 10.4 90.9 7.0
2021 10 12 4:00 Wet 294.7 0.0 0.00 50.0 10.0 90.1 5.4
2021 10 12 5:00 Wet 346.0 0.0 0.00 49.0 9.4 90.4 5.3
2021 10 12 6:00 Wet 381.3 0.0 0.00 48.6 9.2 90.7 6.3
2021 10 12 7:00 Wet 389.0 0.0 0.00 48.9 9.4 89.2 6.4
2021 10 12 8:00 Wet 296.8 0.0 0.00 52.8 11.5 81.5 4.6
2021 10 12 9:00 224.3 0.0 0.00 59.3 15.2 68.59 4.4
2021 10 12 10:00 222.2 0.0 0.00 65.0 18.3 54.25 4.3
2021 10 12 11:00 220.3 0.0 0.00 69.0 20.6 44.3 3.1
2021 10 12 12:00 218.9 0.0 0.00 71.5 22.0 39.6 4.8
2021 10 12 13:00 217.9 0.0 0.00 73.2 22.9 37.12 6.3
2021 10 12 14:00 216.7 0.0 0.00 74.0 23.3 33.78 5.0
2021 10 12 15:00 216.1 0.0 0.00 74.5 23.6 32.78 3.7
2021 10 12 16:00 216.5 0.0 0.00 73.9 23.3 34.83 1.1
2021 10 12 17:00 218.2 0.0 0.00 71.2 21.8 42.03 0.0
2021 10 12 18:00 220.4 0.0 0.00 65.8 18.8 55.99 0.0
2021 10 12 19:00 222.5 0.0 0.00 60.5 15.8 70.22 0.0
2021 10 12 20:00 223.0 0.0 0.00 59.6 15.3 72.81 0.0
2021 10 12 21:00 223.1 0.0 0.00 60.0 15.6 70.51 0.0
2021 10 12 22:00 222.7 0.0 0.00 60.5 15.8 68.64 0.0
2021 10 12 23:00 223.0 0.0 0.00 60.3 15.7 70.87 1.1
2021 10 12 24:00 222.5 0.0 0.00 61.2 16.2 68.55 4.4
2021 10 13 1:00 222.2 0.0 0.00 62.7 17.1 62.29 7.8
2021 10 13 2:00 221.8 0.0 0.00 62.8 17.1 59.41 4.7
2021 10 13 3:00 225.0 0.0 0.00 61.5 16.4 64.13 4.3
2021 10 13 4:00 230.8 0.0 0.00 62.1 16.7 63.7 7.2
2021 10 13 5:00 226.5 0.0 0.00 62.8 17.1 63.11 9.8
2021 10 13 6:00 241.5 0.0 0.25 64.6 18.1 61.31 12.6
2021 10 13 7:00 236.6 0.0 0.00 63.9 17.7 69.13 12.4
2021 10 13 8:00 250.8 0.0 0.00 63.5 17.5 75.78 12.1
2021 10 13 9:00 Wet 308.0 0.0 0.76 63.5 17.5 83.6 9.3
2021 10 13 10:00 274.5 0.0 0.00 64.2 17.9 90.2 6.6
2021 10 13 11:00 Wet 353.4 0.1 1.78 64.7 18.2 93 8.5
2021 10 13 12:00 Wet 306.0 0.0 0.00 65.9 18.8 92.3 12.1
2021 10 13 13:00 Wet 288.9 0.0 0.25 67.0 19.4 88.6 14.3
2021 10 13 14:00 249.3 0.0 0.00 69.2 20.7 83.2 12.4
2021 10 13 15:00 248.8 0.0 0.00 73.1 22.8 70.35 16.7
2021 10 13 16:00 245.4 0.0 0.00 73.2 22.9 68.9 12.6
2021 10 13 17:00 243.1 0.0 0.00 72.1 22.3 71.98 10.4
2021 10 13 18:00 239.4 0.0 0.00 70.9 21.6 73.64 9.9
2021 10 13 19:00 239.9 0.0 0.00 69.1 20.6 80 4.9
2021 10 13 20:00 235.6 0.0 0.00 67.8 19.9 83.9 5.0
2021 10 13 21:00 237.5 0.0 0.00 66.0 18.9 87.5 1.7
2021 10 13 22:00 238.6 0.0 0.00 65.5 18.6 87.6 2.4
2021 10 13 23:00 239.7 0.0 0.00 64.5 18.1 80.9 4.0
2021 10 13 24:00 229.9 0.0 0.00 62.7 17.1 68.09 4.9
2021 10 14 1:00 227.8 0.0 0.00 60.7 15.9 66.1 4.2
2021 10 14 2:00 265.9 0.0 0.00 59.9 15.5 66.01 2.8
2021 10 14 3:00 253.2 0.0 0.00 58.1 14.5 73.89 1.0
2021 10 14 4:00 242.9 0.0 0.00 57.1 13.9 79.85 0.1
2021 10 14 5:00 Wet 285.2 0.0 0.25 57.0 13.9 76.24 0.0
2021 10 14 6:00 254.8 0.0 0.00 55.3 12.9 83.5 1.1
2021 10 14 7:00 249.2 0.0 0.00 55.5 13.1 83.5 0.5
2021 10 14 8:00 249.7 0.0 0.00 55.8 13.2 85.8 0.1
2021 10 14 9:00 246.6 0.0 0.00 59.8 15.5 53.19 1.7
2021 10 14 10:00 239.5 0.0 0.00 62.4 16.9 44.7 1.7
2021 10 14 11:00 219.2 0.0 0.00 65.0 18.4 41.68 2.2
2021 10 14 12:00 218.2 0.0 0.00 67.7 19.8 39.89 2.8
2021 10 14 13:00 216.9 0.0 0.00 69.8 21.0 35.71 1.7
2021 10 14 14:00 215.5 0.0 0.00 71.2 21.8 32.5 0.9
2021 10 14 15:00 214.3 0.0 0.00 72.3 22.4 31.39 0.7
2021 10 14 16:00 215.2 0.0 0.00 71.2 21.8 35.76 3.4
2021 10 14 17:00 216.6 0.0 0.00 69.5 20.8 42.42 4.1
2021 10 14 18:00 219.5 0.0 0.00 64.7 18.1 55.79 3.8
2021 10 14 19:00 221.5 0.0 0.00 60.8 16.0 62.11 1.8
2021 10 14 20:00 226.6 0.0 0.00 56.9 13.8 75.98 0.4
2021 10 14 21:00 228.5 0.0 0.00 53.8 12.1 84.2 1.3
2021 10 14 22:00 237.2 0.0 0.00 53.3 11.8 87.5 0.7
2021 10 14 23:00 230.0 0.0 0.00 53.3 11.8 91 0.6
2021 10 14 24:00 225.6 0.0 0.00 54.9 12.7 86.5 2.6
2021 10 15 1:00 225.2 0.0 0.00 55.2 12.9 86.5 2.3
2021 10 15 2:00 234.5 0.0 0.00 55.0 12.8 78.6 4.2
2021 10 15 3:00 254.8 0.0 0.00 54.4 12.5 68.77 6.1
2021 10 15 4:00 Wet 292.0 0.0 0.25 53.2 11.8 65.97 7.6
2021 10 15 5:00 Wet 377.0 0.0 0.76 49.8 9.9 77.18 7.4
2021 10 15 6:00 254.9 0.0 0.00 49.7 9.8 68.96 7.2
2021 10 15 7:00 249.3 0.0 0.00 49.9 10.0 65.67 6.9
2021 10 15 8:00 255.0 0.0 0.00 50.3 10.2 63.65 6.4
2021 10 15 9:00 236.5 0.0 0.00 52.9 11.6 59.69 7.2
2021 10 15 10:00 228.6 0.0 0.00 54.1 12.3 54.54 7.6
2021 10 15 11:00 250.9 0.0 0.00 56.0 13.3 49.82 9.1
2021 10 15 12:00 253.4 0.0 0.00 57.3 14.1 49.43 9.5
2021 10 15 13:00 234.5 0.0 0.00 54.4 12.5 58.56 12.2
2021 10 15 14:00 243.5 0.0 0.00 54.3 12.4 58.5 10.1
2021 10 15 15:00 250.3 0.0 0.00 56.2 13.4 55.92 11.0
2021 10 15 16:00 245.9 0.0 0.00 54.6 12.6 57.36 4.8
2021 10 15 17:00 253.1 0.0 0.00 54.6 12.6 64.12 3.6
2021 10 15 18:00 255.5 0.0 0.00 52.4 11.3 69.96 4.0
2021 10 15 19:00 241.1 0.0 0.00 48.8 9.3 79.23 4.2
2021 10 15 20:00 250.2 0.0 0.00 46.5 8.0 75.84 4.6
2021 10 15 21:00 251.0 0.0 0.00 45.0 7.2 74.77 2.5
2021 10 15 22:00 255.1 0.0 0.00 45.2 7.3 71.97 4.4
2021 10 15 23:00 256.5 0.0 0.00 45.2 7.3 70.29 5.5
2021 10 15 24:00 256.0 0.0 0.00 44.8 7.1 70 6.4
2021 10 16 1:00 236.8 0.0 0.00 43.9 6.6 71.1 5.6
2021 10 16 2:00 242.4 0.0 0.00 42.9 6.0 73.34 5.3
2021 10 16 3:00 241.2 0.0 0.00 42.6 5.9 73.47 6.4
2021 10 16 4:00 243.9 0.0 0.00 41.8 5.4 75.07 5.4
2021 10 16 5:00 253.3 0.0 0.00 41.1 5.0 76.55 5.6
2021 10 16 6:00 252.9 0.0 0.00 40.6 4.8 77.06 6.0
2021 10 16 7:00 251.9 0.0 0.00 40.4 4.7 76.75 5.8
2021 10 16 8:00 249.7 0.0 0.00 43.0 6.1 71.13 8.2
2021 10 16 9:00 248.8 0.0 0.00 47.8 8.8 61.38 8.9
2021 10 16 10:00 230.8 0.0 0.00 52.6 11.5 50.63 9.8
2021 10 16 11:00 243.3 0.0 0.00 56.5 13.6 41.1 11.3
2021 10 16 12:00 219.1 0.0 0.00 58.5 14.7 35.53 12.7
2021 10 16 13:00 218.5 0.0 0.00 59.6 15.3 32.57 13.4
2021 10 16 14:00 218.3 0.0 0.00 60.7 16.0 30.82 12.7
2021 10 16 15:00 216.9 0.0 0.00 61.2 16.2 29.32 12.3
2021 10 16 16:00 223.7 0.0 0.00 60.9 16.1 30.37 10.9
2021 10 16 17:00 242.0 0.0 0.00 59.4 15.2 34.18 7.6
2021 10 16 18:00 241.1 0.0 0.00 53.3 11.8 49.71 1.7
2021 10 16 19:00 251.8 0.0 0.00 48.5 9.2 63.2 0.0
2021 10 16 20:00 255.6 0.0 0.00 46.5 8.1 67.55 0.0
2021 10 16 21:00 253.8 0.0 0.00 46.8 8.2 62.05 1.9
2021 10 16 22:00 254.2 0.0 0.00 45.9 7.7 62.78 5.6
2021 10 16 23:00 248.4 0.0 0.00 45.1 7.3 64.58 4.5
2021 10 16 24:00 226.9 0.0 0.00 45.7 7.6 61.59 4.9
2021 10 17 1:00 240.8 0.0 0.00 43.4 6.3 67.89 0.9
2021 10 17 2:00 242.1 0.0 0.00 43.2 6.2 67.2 3.2
2021 10 17 3:00 241.2 0.0 0.00 42.1 5.6 70.03 5.7
2021 10 17 4:00 241.1 0.0 0.00 42.0 5.6 70.31 6.7
2021 10 17 5:00 240.2 0.0 0.00 41.7 5.4 70.71 6.5
2021 10 17 6:00 240.5 0.0 0.00 41.6 5.3 70.63 6.9
2021 10 17 7:00 240.4 0.0 0.00 41.4 5.2 71.08 4.7
2021 10 17 8:00 228.1 0.0 0.00 45.5 7.5 64.77 5.0
2021 10 17 9:00 229.2 0.0 0.00 52.8 11.6 52.21 7.2
2021 10 17 10:00 220.9 0.0 0.00 59.1 15.1 42.25 7.9
2021 10 17 11:00 218.8 0.0 0.00 63.4 17.4 36.93 6.8
2021 10 17 12:00 217.6 0.0 0.00 66.3 19.0 32.31 7.2
2021 10 17 13:00 216.7 0.0 0.00 68.0 20.0 30.12 8.2
2021 10 17 14:00 216.0 0.0 0.00 69.0 20.6 29.28 7.6
2021 10 17 15:00 215.5 0.0 0.00 69.4 20.8 29.7 6.7
2021 10 17 16:00 215.6 0.0 0.00 69.1 20.6 30.17 5.9
2021 10 17 17:00 216.3 0.0 0.00 67.2 19.6 33.4 4.5
2021 10 17 18:00 218.4 0.0 0.00 61.8 16.6 41.36 0.0
2021 10 17 19:00 220.7 0.0 0.00 54.2 12.3 58.39 0.0
2021 10 17 20:00 221.9 0.0 0.00 50.1 10.1 67.1 0.0
2021 10 17 21:00 222.8 0.0 0.00 48.6 9.2 70.56 0.1
2021 10 17 22:00 222.8 0.0 0.00 49.5 9.7 65.22 0.0
2021 10 17 23:00 222.8 0.0 0.00 50.1 10.1 62.67 0.0
2021 10 17 24:00 222.8 0.0 0.00 49.1 9.5 65.71 0.0
2021 10 18 1:00 224.4 0.0 0.00 46.1 7.9 74.65 0.0
2021 10 18 2:00 224.5 0.0 0.00 46.1 7.8 74.92 0.0
2021 10 18 3:00 226.3 0.0 0.00 44.2 6.8 80 0.0
2021 10 18 4:00 225.2 0.0 0.00 43.6 6.5 80.9 0.0
2021 10 18 5:00 226.2 0.0 0.00 43.0 6.1 83.3 0.0
2021 10 18 6:00 231.5 0.0 0.00 42.2 5.7 86 0.0
2021 10 18 7:00 237.6 0.0 0.00 42.5 5.8 86.2 0.0
2021 10 18 8:00 227.3 0.0 0.00 46.9 8.3 82.7 0.7
2021 10 18 9:00 223.2 0.0 0.00 54.1 12.3 70.21 5.9
2021 10 18 10:00 221.5 0.0 0.00 59.7 15.4 59.53 6.4
2021 10 18 11:00 219.7 0.0 0.00 65.4 18.6 46.62 4.9
2021 10 18 12:00 218.1 0.0 0.00 69.1 20.6 39.56 5.6
2021 10 18 13:00 217.0 0.0 0.00 71.9 22.1 34.97 6.5
2021 10 18 14:00 216.4 0.0 0.00 73.0 22.8 32.33 8.1
2021 10 18 15:00 216.0 0.0 0.00 73.5 23.1 30.69 7.8
2021 10 18 16:00 216.1 0.0 0.00 72.8 22.6 32.71 8.0
2021 10 18 17:00 216.5 0.0 0.00 70.5 21.4 35.77 6.3
2021 10 18 18:00 218.7 0.0 0.00 64.0 17.8 46.21 1.5
2021 10 18 19:00 220.3 0.0 0.00 59.7 15.4 53.7 0.0
2021 10 18 20:00 221.7 0.0 0.00 55.7 13.2 62.75 0.1
2021 10 18 21:00 222.0 0.0 0.00 54.6 12.6 65.66 0.1
2021 10 18 22:00 223.2 0.0 0.00 52.9 11.6 69.03 0.0
2021 10 18 23:00 222.8 0.0 0.00 52.2 11.2 70 0.1
2021 10 18 24:00 222.9 0.0 0.00 51.6 10.9 70.83 0.4
2021 10 19 1:00 223.6 0.0 0.00 50.1 10.1 74.44 0.6
2021 10 19 2:00 224.4 0.0 0.00 48.9 9.4 77.84 2.1
2021 10 19 3:00 229.4 0.0 0.00 48.3 9.1 79.8 2.3
2021 10 19 4:00 239.7 0.0 0.00 48.1 8.9 81.4 1.2
2021 10 19 5:00 239.8 0.0 0.00 48.4 9.1 81.5 2.9
2021 10 19 6:00 239.5 0.0 0.00 47.4 8.6 84 4.0
2021 10 19 7:00 241.4 0.0 0.00 47.9 8.8 84.4 4.3
2021 10 19 8:00 246.0 0.0 0.00 49.8 9.9 82.2 5.6
2021 10 19 9:00 245.4 0.0 0.00 53.5 11.9 75.11 6.5
2021 10 19 10:00 244.9 0.0 0.00 59.6 15.3 61.39 8.1
2021 10 19 11:00 243.7 0.0 0.00 65.1 18.4 48.98 8.8
2021 10 19 12:00 229.2 0.0 0.00 68.8 20.4 42.32 9.8
2021 10 19 13:00 217.9 0.0 0.00 71.0 21.7 37.04 11.6
2021 10 19 14:00 217.2 0.0 0.00 72.2 22.3 35.33 11.7
2021 10 19 15:00 224.9 0.0 0.00 72.2 22.3 35.26 11.3
2021 10 19 16:00 232.2 0.0 0.00 71.2 21.8 36.66 10.6
2021 10 19 17:00 241.5 0.0 0.00 69.5 20.8 40.67 8.5
2021 10 19 18:00 231.8 0.0 0.00 64.7 18.2 47.35 5.3
2021 10 19 19:00 225.5 0.0 0.00 61.1 16.1 56.34 5.7
2021 10 19 20:00 228.9 0.0 0.00 59.9 15.5 59.21 6.2
2021 10 19 21:00 230.6 0.0 0.00 58.7 14.8 61.11 6.1
2021 10 19 22:00 232.2 0.0 0.00 57.8 14.3 63.03 6.3
2021 10 19 23:00 233.2 0.0 0.00 58.3 14.6 60.89 7.9
2021 10 19 24:00 242.1 0.0 0.00 56.4 13.5 65.72 6.4
CST mV in mm F C % mph
Year Month Day Hour Leaf Wetness Total
Precipitation
Avg. Temp Avg. Rel.
Humidity
Wind
Speed

Back to the top of the page